﻿<?xml version="1.0" encoding="UTF-8" standalone="no" ?>
<gpx xmlns="http://www.topografix.com/GPX/1/1" creator="CompeGPS" version="1.1" xmlns:xsi="http://www.w3.org/2001/XMLSchema-instance" xsi:schemaLocation="http://www.topografix.com/GPX/1/1 http://www.topografix.com/GPX/1/1/gpx.xsd http://www.garmin.com/xmlschemas/GpxExtensions/v3 http://www.garmin.com/xmlschemas/GpxExtensionsv3.xsd http://www.garmin.com/xmlschemas/TrackPointExtension/v1 http://www.garmin.com/xmlschemas/TrackPointExtensionv1.xsd" xmlns:gpxtpx="http://www.garmin.com/xmlschemas/TrackPointExtension/v1">
  <metadata>
    <link href="http://www.compegps.com">
      <text>CompeGPS TEAM, SL</text>
    </link>
    <time>2013-02-04T09:49:47Z</time>
    <bounds maxlat="42.851648" maxlon="1.427303" minlat="42.841856" minlon="1.400538"/>
  </metadata>
<wpt lat="42.851571" lon="1.400538">
<ele>940</ele>
<name>Depart</name>
</wpt>
<wpt lat="42.848254" lon="1.415435">
<ele>1194</ele>
<name>La Plagne</name>
</wpt>
<wpt lat="42.843031" lon="1.423924">
<ele>1430</ele>
<name>Hameau de Goutets</name>
</wpt>
<wpt lat="42.841903" lon="1.426937">
<ele>1450</ele>
<name>Hameau superieur</name>
</wpt>
<trk>
    <name>Hameau de Goutets</name>
    <trkseg>
      <trkpt lat="42.851571" lon="1.400538">
        <ele>986.6</ele>
        <time>2013-02-01T09:04:59Z</time>
        <name>Depart</name>
      </trkpt>
      <trkpt lat="42.851555" lon="1.400615">
        <ele>926.4</ele>
        <time>2013-02-01T09:05:11Z</time>
      </trkpt>
      <trkpt lat="42.851525" lon="1.400776">
        <ele>927.8</ele>
        <time>2013-02-01T09:05:25Z</time>
      </trkpt>
      <trkpt lat="42.851518" lon="1.400944">
        <ele>929.2</ele>
        <time>2013-02-01T09:05:40Z</time>
      </trkpt>
      <trkpt lat="42.851496" lon="1.401087">
        <ele>930.7</ele>
        <time>2013-02-01T09:05:56Z</time>
      </trkpt>
      <trkpt lat="42.851464" lon="1.401255">
        <ele>932.1</ele>
        <time>2013-02-01T09:06:10Z</time>
      </trkpt>
      <trkpt lat="42.851423" lon="1.401422">
        <ele>933.1</ele>
        <time>2013-02-01T09:06:27Z</time>
      </trkpt>
      <trkpt lat="42.851408" lon="1.401601">
        <ele>934.5</ele>
        <time>2013-02-01T09:06:40Z</time>
      </trkpt>
      <trkpt lat="42.851391" lon="1.401684">
        <ele>936.0</ele>
        <time>2013-02-01T09:06:56Z</time>
      </trkpt>
      <trkpt lat="42.851410" lon="1.401820">
        <ele>937.4</ele>
        <time>2013-02-01T09:07:10Z</time>
      </trkpt>
      <trkpt lat="42.851440" lon="1.401955">
        <ele>938.9</ele>
        <time>2013-02-01T09:07:25Z</time>
      </trkpt>
      <trkpt lat="42.851498" lon="1.402088">
        <ele>940.3</ele>
        <time>2013-02-01T09:07:42Z</time>
      </trkpt>
      <trkpt lat="42.851554" lon="1.402247">
        <ele>941.8</ele>
        <time>2013-02-01T09:08:09Z</time>
      </trkpt>
      <trkpt lat="42.851621" lon="1.402379">
        <ele>942.7</ele>
        <time>2013-02-01T09:08:23Z</time>
      </trkpt>
      <trkpt lat="42.851648" lon="1.402552">
        <ele>944.6</ele>
        <time>2013-02-01T09:08:38Z</time>
      </trkpt>
      <trkpt lat="42.851579" lon="1.402632">
        <ele>946.1</ele>
        <time>2013-02-01T09:08:50Z</time>
      </trkpt>
      <trkpt lat="42.851509" lon="1.402658">
        <ele>946.6</ele>
        <time>2013-02-01T09:09:06Z</time>
      </trkpt>
      <trkpt lat="42.851534" lon="1.402726">
        <ele>947.0</ele>
        <time>2013-02-01T09:09:53Z</time>
      </trkpt>
      <trkpt lat="42.851434" lon="1.402831">
        <ele>948.5</ele>
        <time>2013-02-01T09:10:17Z</time>
      </trkpt>
      <trkpt lat="42.851414" lon="1.402819">
        <ele>949.4</ele>
        <time>2013-02-01T09:10:52Z</time>
      </trkpt>
      <trkpt lat="42.851424" lon="1.402940">
        <ele>951.8</ele>
        <time>2013-02-01T09:13:39Z</time>
      </trkpt>
      <trkpt lat="42.851399" lon="1.403077">
        <ele>953.3</ele>
        <time>2013-02-01T09:13:57Z</time>
      </trkpt>
      <trkpt lat="42.851402" lon="1.403252">
        <ele>955.2</ele>
        <time>2013-02-01T09:14:10Z</time>
      </trkpt>
      <trkpt lat="42.851322" lon="1.403399">
        <ele>957.1</ele>
        <time>2013-02-01T09:14:26Z</time>
      </trkpt>
      <trkpt lat="42.851289" lon="1.403563">
        <ele>957.6</ele>
        <time>2013-02-01T09:14:43Z</time>
      </trkpt>
      <trkpt lat="42.851228" lon="1.403719">
        <ele>960.0</ele>
        <time>2013-02-01T09:15:01Z</time>
      </trkpt>
      <trkpt lat="42.851122" lon="1.403803">
        <ele>961.0</ele>
        <time>2013-02-01T09:15:14Z</time>
      </trkpt>
      <trkpt lat="42.851051" lon="1.403931">
        <ele>962.4</ele>
        <time>2013-02-01T09:15:32Z</time>
      </trkpt>
      <trkpt lat="42.851000" lon="1.404078">
        <ele>964.3</ele>
        <time>2013-02-01T09:15:53Z</time>
      </trkpt>
      <trkpt lat="42.850914" lon="1.404238">
        <ele>964.8</ele>
        <time>2013-02-01T09:16:11Z</time>
      </trkpt>
      <trkpt lat="42.850818" lon="1.404368">
        <ele>966.3</ele>
        <time>2013-02-01T09:16:25Z</time>
      </trkpt>
      <trkpt lat="42.850726" lon="1.404478">
        <ele>967.2</ele>
        <time>2013-02-01T09:16:39Z</time>
      </trkpt>
      <trkpt lat="42.850638" lon="1.404581">
        <ele>969.2</ele>
        <time>2013-02-01T09:16:54Z</time>
      </trkpt>
      <trkpt lat="42.850533" lon="1.404657">
        <ele>970.6</ele>
        <time>2013-02-01T09:17:10Z</time>
      </trkpt>
      <trkpt lat="42.850494" lon="1.404769">
        <ele>972.5</ele>
        <time>2013-02-01T09:17:26Z</time>
      </trkpt>
      <trkpt lat="42.850459" lon="1.404927">
        <ele>972.5</ele>
        <time>2013-02-01T09:17:40Z</time>
      </trkpt>
      <trkpt lat="42.850427" lon="1.405102">
        <ele>974.4</ele>
        <time>2013-02-01T09:17:55Z</time>
      </trkpt>
      <trkpt lat="42.850377" lon="1.405276">
        <ele>976.4</ele>
        <time>2013-02-01T09:18:14Z</time>
      </trkpt>
      <trkpt lat="42.850314" lon="1.405446">
        <ele>977.8</ele>
        <time>2013-02-01T09:18:29Z</time>
      </trkpt>
      <trkpt lat="42.850250" lon="1.405589">
        <ele>979.2</ele>
        <time>2013-02-01T09:18:44Z</time>
      </trkpt>
      <trkpt lat="42.850183" lon="1.405703">
        <ele>980.7</ele>
        <time>2013-02-01T09:18:57Z</time>
      </trkpt>
      <trkpt lat="42.850116" lon="1.405818">
        <ele>982.1</ele>
        <time>2013-02-01T09:19:12Z</time>
      </trkpt>
      <trkpt lat="42.850032" lon="1.405932">
        <ele>983.6</ele>
        <time>2013-02-01T09:19:27Z</time>
      </trkpt>
      <trkpt lat="42.849938" lon="1.406004">
        <ele>985.0</ele>
        <time>2013-02-01T09:19:42Z</time>
      </trkpt>
      <trkpt lat="42.849853" lon="1.406140">
        <ele>985.5</ele>
        <time>2013-02-01T09:19:58Z</time>
      </trkpt>
      <trkpt lat="42.849759" lon="1.406299">
        <ele>986.9</ele>
        <time>2013-02-01T09:20:17Z</time>
      </trkpt>
      <trkpt lat="42.849660" lon="1.406401">
        <ele>988.4</ele>
        <time>2013-02-01T09:20:32Z</time>
      </trkpt>
      <trkpt lat="42.849567" lon="1.406505">
        <ele>990.3</ele>
        <time>2013-02-01T09:20:48Z</time>
      </trkpt>
      <trkpt lat="42.849468" lon="1.406585">
        <ele>991.3</ele>
        <time>2013-02-01T09:21:03Z</time>
      </trkpt>
      <trkpt lat="42.849353" lon="1.406624">
        <ele>993.2</ele>
        <time>2013-02-01T09:21:17Z</time>
      </trkpt>
      <trkpt lat="42.849288" lon="1.406738">
        <ele>994.1</ele>
        <time>2013-02-01T09:21:32Z</time>
      </trkpt>
      <trkpt lat="42.849222" lon="1.406894">
        <ele>995.6</ele>
        <time>2013-02-01T09:21:48Z</time>
      </trkpt>
      <trkpt lat="42.849129" lon="1.406995">
        <ele>996.5</ele>
        <time>2013-02-01T09:22:01Z</time>
      </trkpt>
      <trkpt lat="42.849026" lon="1.407059">
        <ele>998.5</ele>
        <time>2013-02-01T09:22:18Z</time>
      </trkpt>
      <trkpt lat="42.848930" lon="1.407160">
        <ele>1000.4</ele>
        <time>2013-02-01T09:22:36Z</time>
      </trkpt>
      <trkpt lat="42.848845" lon="1.407322">
        <ele>1001.8</ele>
        <time>2013-02-01T09:23:47Z</time>
      </trkpt>
      <trkpt lat="42.848789" lon="1.407543">
        <ele>1003.3</ele>
        <time>2013-02-01T09:24:08Z</time>
      </trkpt>
      <trkpt lat="42.848693" lon="1.407673">
        <ele>1005.2</ele>
        <time>2013-02-01T09:24:29Z</time>
      </trkpt>
      <trkpt lat="42.848564" lon="1.407737">
        <ele>1007.1</ele>
        <time>2013-02-01T09:25:32Z</time>
      </trkpt>
      <trkpt lat="42.848491" lon="1.407889">
        <ele>1008.6</ele>
        <time>2013-02-01T09:25:49Z</time>
      </trkpt>
      <trkpt lat="42.848406" lon="1.407991">
        <ele>1010.0</ele>
        <time>2013-02-01T09:26:06Z</time>
      </trkpt>
      <trkpt lat="42.848307" lon="1.408101">
        <ele>1011.4</ele>
        <time>2013-02-01T09:26:23Z</time>
      </trkpt>
      <trkpt lat="42.848207" lon="1.408181">
        <ele>1012.9</ele>
        <time>2013-02-01T09:26:38Z</time>
      </trkpt>
      <trkpt lat="42.848111" lon="1.408253">
        <ele>1013.8</ele>
        <time>2013-02-01T09:26:53Z</time>
      </trkpt>
      <trkpt lat="42.848026" lon="1.408283">
        <ele>1015.3</ele>
        <time>2013-02-01T09:27:07Z</time>
      </trkpt>
      <trkpt lat="42.847906" lon="1.408349">
        <ele>1016.2</ele>
        <time>2013-02-01T09:27:27Z</time>
      </trkpt>
      <trkpt lat="42.847809" lon="1.408483">
        <ele>1018.2</ele>
        <time>2013-02-01T09:27:45Z</time>
      </trkpt>
      <trkpt lat="42.847736" lon="1.408594">
        <ele>1019.1</ele>
        <time>2013-02-01T09:28:02Z</time>
      </trkpt>
      <trkpt lat="42.847668" lon="1.408763">
        <ele>1021.1</ele>
        <time>2013-02-01T09:28:20Z</time>
      </trkpt>
      <trkpt lat="42.847602" lon="1.408879">
        <ele>1022.0</ele>
        <time>2013-02-01T09:28:35Z</time>
      </trkpt>
      <trkpt lat="42.847522" lon="1.408961">
        <ele>1023.5</ele>
        <time>2013-02-01T09:28:52Z</time>
      </trkpt>
      <trkpt lat="42.847445" lon="1.409076">
        <ele>1024.4</ele>
        <time>2013-02-01T09:29:08Z</time>
      </trkpt>
      <trkpt lat="42.847371" lon="1.409168">
        <ele>1026.3</ele>
        <time>2013-02-01T09:29:24Z</time>
      </trkpt>
      <trkpt lat="42.847279" lon="1.409258">
        <ele>1027.8</ele>
        <time>2013-02-01T09:29:41Z</time>
      </trkpt>
      <trkpt lat="42.847211" lon="1.409390">
        <ele>1029.2</ele>
        <time>2013-02-01T09:29:57Z</time>
      </trkpt>
      <trkpt lat="42.847139" lon="1.409489">
        <ele>1029.7</ele>
        <time>2013-02-01T09:30:13Z</time>
      </trkpt>
      <trkpt lat="42.847074" lon="1.409629">
        <ele>1031.2</ele>
        <time>2013-02-01T09:30:30Z</time>
      </trkpt>
      <trkpt lat="42.847035" lon="1.409769">
        <ele>1032.1</ele>
        <time>2013-02-01T09:30:48Z</time>
      </trkpt>
      <trkpt lat="42.846992" lon="1.409949">
        <ele>1033.6</ele>
        <time>2013-02-01T09:31:09Z</time>
      </trkpt>
      <trkpt lat="42.846943" lon="1.410102">
        <ele>1034.5</ele>
        <time>2013-02-01T09:31:31Z</time>
      </trkpt>
      <trkpt lat="42.846893" lon="1.410274">
        <ele>1036.4</ele>
        <time>2013-02-01T09:31:51Z</time>
      </trkpt>
      <trkpt lat="42.846844" lon="1.410482">
        <ele>1038.4</ele>
        <time>2013-02-01T09:32:12Z</time>
      </trkpt>
      <trkpt lat="42.846805" lon="1.410724">
        <ele>1039.8</ele>
        <time>2013-02-01T09:32:34Z</time>
      </trkpt>
      <trkpt lat="42.846749" lon="1.410954">
        <ele>1042.7</ele>
        <time>2013-02-01T09:33:04Z</time>
      </trkpt>
      <trkpt lat="42.846683" lon="1.411201">
        <ele>1045.1</ele>
        <time>2013-02-01T09:33:30Z</time>
      </trkpt>
      <trkpt lat="42.846607" lon="1.411322">
        <ele>1049.9</ele>
        <time>2013-02-01T09:33:51Z</time>
      </trkpt>
      <trkpt lat="42.846554" lon="1.411438">
        <ele>1048.0</ele>
        <time>2013-02-01T09:34:07Z</time>
      </trkpt>
      <trkpt lat="42.846519" lon="1.411602">
        <ele>1049.9</ele>
        <time>2013-02-01T09:34:30Z</time>
      </trkpt>
      <trkpt lat="42.846445" lon="1.411749">
        <ele>1051.3</ele>
        <time>2013-02-01T09:34:49Z</time>
      </trkpt>
      <trkpt lat="42.846385" lon="1.411921">
        <ele>1052.8</ele>
        <time>2013-02-01T09:35:08Z</time>
      </trkpt>
      <trkpt lat="42.846318" lon="1.412079">
        <ele>1055.2</ele>
        <time>2013-02-01T09:35:29Z</time>
      </trkpt>
      <trkpt lat="42.846255" lon="1.412224">
        <ele>1056.2</ele>
        <time>2013-02-01T09:35:46Z</time>
      </trkpt>
      <trkpt lat="42.846141" lon="1.412313">
        <ele>1057.6</ele>
        <time>2013-02-01T09:36:05Z</time>
      </trkpt>
      <trkpt lat="42.846029" lon="1.412419">
        <ele>1059.5</ele>
        <time>2013-02-01T09:36:22Z</time>
      </trkpt>
      <trkpt lat="42.845964" lon="1.412537">
        <ele>1060.9</ele>
        <time>2013-02-01T09:36:36Z</time>
      </trkpt>
      <trkpt lat="42.845884" lon="1.412659">
        <ele>1061.9</ele>
        <time>2013-02-01T09:36:52Z</time>
      </trkpt>
      <trkpt lat="42.845834" lon="1.412828">
        <ele>1062.9</ele>
        <time>2013-02-01T09:37:10Z</time>
      </trkpt>
      <trkpt lat="42.845773" lon="1.412956">
        <ele>1065.3</ele>
        <time>2013-02-01T09:37:27Z</time>
      </trkpt>
      <trkpt lat="42.845702" lon="1.413072">
        <ele>1066.2</ele>
        <time>2013-02-01T09:37:44Z</time>
      </trkpt>
      <trkpt lat="42.845638" lon="1.413187">
        <ele>1068.2</ele>
        <time>2013-02-01T09:38:00Z</time>
      </trkpt>
      <trkpt lat="42.845540" lon="1.413304">
        <ele>1068.6</ele>
        <time>2013-02-01T09:38:15Z</time>
      </trkpt>
      <trkpt lat="42.845431" lon="1.413394">
        <ele>1070.1</ele>
        <time>2013-02-01T09:38:32Z</time>
      </trkpt>
      <trkpt lat="42.845337" lon="1.413473">
        <ele>1071.5</ele>
        <time>2013-02-01T09:38:47Z</time>
      </trkpt>
      <trkpt lat="42.845246" lon="1.413596">
        <ele>1073.0</ele>
        <time>2013-02-01T09:39:05Z</time>
      </trkpt>
      <trkpt lat="42.845169" lon="1.413715">
        <ele>1074.4</ele>
        <time>2013-02-01T09:39:21Z</time>
      </trkpt>
      <trkpt lat="42.845107" lon="1.413831">
        <ele>1075.8</ele>
        <time>2013-02-01T09:39:36Z</time>
      </trkpt>
      <trkpt lat="42.845031" lon="1.413932">
        <ele>1077.3</ele>
        <time>2013-02-01T09:39:52Z</time>
      </trkpt>
      <trkpt lat="42.844930" lon="1.413968">
        <ele>1078.3</ele>
        <time>2013-02-01T09:40:06Z</time>
      </trkpt>
      <trkpt lat="42.844852" lon="1.414033">
        <ele>1079.7</ele>
        <time>2013-02-01T09:40:24Z</time>
      </trkpt>
      <trkpt lat="42.844822" lon="1.414167">
        <ele>1081.6</ele>
        <time>2013-02-01T09:40:42Z</time>
      </trkpt>
      <trkpt lat="42.844847" lon="1.414372">
        <ele>1083.5</ele>
        <time>2013-02-01T09:41:09Z</time>
      </trkpt>
      <trkpt lat="42.844835" lon="1.414647">
        <ele>1086.4</ele>
        <time>2013-02-01T09:41:43Z</time>
      </trkpt>
      <trkpt lat="42.844779" lon="1.414851">
        <ele>1088.3</ele>
        <time>2013-02-01T09:42:06Z</time>
      </trkpt>
      <trkpt lat="42.844709" lon="1.414977">
        <ele>1089.8</ele>
        <time>2013-02-01T09:42:20Z</time>
      </trkpt>
      <trkpt lat="42.844658" lon="1.415133">
        <ele>1090.8</ele>
        <time>2013-02-01T09:42:34Z</time>
      </trkpt>
      <trkpt lat="42.844547" lon="1.415291">
        <ele>1091.7</ele>
        <time>2013-02-01T09:42:54Z</time>
      </trkpt>
      <trkpt lat="42.844417" lon="1.415393">
        <ele>1094.6</ele>
        <time>2013-02-01T09:43:24Z</time>
      </trkpt>
      <trkpt lat="42.844301" lon="1.415328">
        <ele>1095.1</ele>
        <time>2013-02-01T09:43:44Z</time>
      </trkpt>
      <trkpt lat="42.844141" lon="1.415304">
        <ele>1097.0</ele>
        <time>2013-02-01T09:44:04Z</time>
      </trkpt>
      <trkpt lat="42.843852" lon="1.415360">
        <ele>1098.9</ele>
        <time>2013-02-01T09:47:11Z</time>
      </trkpt>
      <trkpt lat="42.843951" lon="1.415536">
        <ele>1100.4</ele>
        <time>2013-02-01T09:47:29Z</time>
      </trkpt>
      <trkpt lat="42.843987" lon="1.415733">
        <ele>1101.3</ele>
        <time>2013-02-01T09:48:11Z</time>
      </trkpt>
      <trkpt lat="42.844097" lon="1.415801">
        <ele>1103.2</ele>
        <time>2013-02-01T09:48:27Z</time>
      </trkpt>
      <trkpt lat="42.844170" lon="1.415825">
        <ele>1103.7</ele>
        <time>2013-02-01T09:48:43Z</time>
      </trkpt>
      <trkpt lat="42.844271" lon="1.415737">
        <ele>1104.7</ele>
        <time>2013-02-01T09:49:00Z</time>
      </trkpt>
      <trkpt lat="42.844412" lon="1.415636">
        <ele>1105.2</ele>
        <time>2013-02-01T09:49:16Z</time>
      </trkpt>
      <trkpt lat="42.844531" lon="1.415573">
        <ele>1105.7</ele>
        <time>2013-02-01T09:49:29Z</time>
      </trkpt>
      <trkpt lat="42.844648" lon="1.415519">
        <ele>1106.1</ele>
        <time>2013-02-01T09:49:44Z</time>
      </trkpt>
      <trkpt lat="42.844752" lon="1.415428">
        <ele>1107.1</ele>
        <time>2013-02-01T09:50:03Z</time>
      </trkpt>
      <trkpt lat="42.844846" lon="1.415338">
        <ele>1108.1</ele>
        <time>2013-02-01T09:50:20Z</time>
      </trkpt>
      <trkpt lat="42.844937" lon="1.415257">
        <ele>1108.5</ele>
        <time>2013-02-01T09:50:34Z</time>
      </trkpt>
      <trkpt lat="42.845032" lon="1.415171">
        <ele>1109.0</ele>
        <time>2013-02-01T09:50:50Z</time>
      </trkpt>
      <trkpt lat="42.845127" lon="1.415096">
        <ele>1110.0</ele>
        <time>2013-02-01T09:51:06Z</time>
      </trkpt>
      <trkpt lat="42.845279" lon="1.414977">
        <ele>1110.9</ele>
        <time>2013-02-01T09:52:11Z</time>
      </trkpt>
      <trkpt lat="42.845356" lon="1.414875">
        <ele>1112.4</ele>
        <time>2013-02-01T09:52:32Z</time>
      </trkpt>
      <trkpt lat="42.845475" lon="1.414786">
        <ele>1114.8</ele>
        <time>2013-02-01T09:52:47Z</time>
      </trkpt>
      <trkpt lat="42.845606" lon="1.414691">
        <ele>1115.8</ele>
        <time>2013-02-01T09:53:05Z</time>
      </trkpt>
      <trkpt lat="42.845699" lon="1.414602">
        <ele>1117.2</ele>
        <time>2013-02-01T09:53:19Z</time>
      </trkpt>
      <trkpt lat="42.845783" lon="1.414496">
        <ele>1119.1</ele>
        <time>2013-02-01T09:53:35Z</time>
      </trkpt>
      <trkpt lat="42.845838" lon="1.414354">
        <ele>1120.6</ele>
        <time>2013-02-01T09:53:49Z</time>
      </trkpt>
      <trkpt lat="42.845921" lon="1.414239">
        <ele>1121.5</ele>
        <time>2013-02-01T09:54:03Z</time>
      </trkpt>
      <trkpt lat="42.845981" lon="1.414119">
        <ele>1123.0</ele>
        <time>2013-02-01T09:54:18Z</time>
      </trkpt>
      <trkpt lat="42.846047" lon="1.414025">
        <ele>1123.9</ele>
        <time>2013-02-01T09:54:32Z</time>
      </trkpt>
      <trkpt lat="42.846141" lon="1.413979">
        <ele>1124.9</ele>
        <time>2013-02-01T09:54:49Z</time>
      </trkpt>
      <trkpt lat="42.846250" lon="1.414092">
        <ele>1126.8</ele>
        <time>2013-02-01T09:55:08Z</time>
      </trkpt>
      <trkpt lat="42.846390" lon="1.414122">
        <ele>1128.2</ele>
        <time>2013-02-01T09:55:24Z</time>
      </trkpt>
      <trkpt lat="42.846473" lon="1.414065">
        <ele>1128.7</ele>
        <time>2013-02-01T09:55:37Z</time>
      </trkpt>
      <trkpt lat="42.846551" lon="1.413975">
        <ele>1129.7</ele>
        <time>2013-02-01T09:55:51Z</time>
      </trkpt>
      <trkpt lat="42.846653" lon="1.413891">
        <ele>1130.7</ele>
        <time>2013-02-01T09:56:05Z</time>
      </trkpt>
      <trkpt lat="42.846726" lon="1.413772">
        <ele>1131.6</ele>
        <time>2013-02-01T09:56:21Z</time>
      </trkpt>
      <trkpt lat="42.846828" lon="1.413677">
        <ele>1133.5</ele>
        <time>2013-02-01T09:56:38Z</time>
      </trkpt>
      <trkpt lat="42.846916" lon="1.413611">
        <ele>1134.0</ele>
        <time>2013-02-01T09:56:52Z</time>
      </trkpt>
      <trkpt lat="42.847055" lon="1.413590">
        <ele>1135.9</ele>
        <time>2013-02-01T09:57:11Z</time>
      </trkpt>
      <trkpt lat="42.847176" lon="1.413613">
        <ele>1137.9</ele>
        <time>2013-02-01T09:57:33Z</time>
      </trkpt>
      <trkpt lat="42.847295" lon="1.413593">
        <ele>1138.8</ele>
        <time>2013-02-01T09:57:52Z</time>
      </trkpt>
      <trkpt lat="42.847392" lon="1.413519">
        <ele>1140.7</ele>
        <time>2013-02-01T09:58:12Z</time>
      </trkpt>
      <trkpt lat="42.847537" lon="1.413445">
        <ele>1142.2</ele>
        <time>2013-02-01T09:58:33Z</time>
      </trkpt>
      <trkpt lat="42.847644" lon="1.413383">
        <ele>1143.1</ele>
        <time>2013-02-01T09:58:50Z</time>
      </trkpt>
      <trkpt lat="42.847754" lon="1.413312">
        <ele>1145.1</ele>
        <time>2013-02-01T09:59:08Z</time>
      </trkpt>
      <trkpt lat="42.847866" lon="1.413253">
        <ele>1146.5</ele>
        <time>2013-02-01T09:59:23Z</time>
      </trkpt>
      <trkpt lat="42.847946" lon="1.413145">
        <ele>1147.9</ele>
        <time>2013-02-01T09:59:39Z</time>
      </trkpt>
      <trkpt lat="42.848017" lon="1.413036">
        <ele>1148.9</ele>
        <time>2013-02-01T09:59:53Z</time>
      </trkpt>
      <trkpt lat="42.848074" lon="1.412918">
        <ele>1150.3</ele>
        <time>2013-02-01T10:00:07Z</time>
      </trkpt>
      <trkpt lat="42.848145" lon="1.412800">
        <ele>1150.8</ele>
        <time>2013-02-01T10:00:23Z</time>
      </trkpt>
      <trkpt lat="42.848210" lon="1.412664">
        <ele>1152.3</ele>
        <time>2013-02-01T10:00:39Z</time>
      </trkpt>
      <trkpt lat="42.848274" lon="1.412543">
        <ele>1152.8</ele>
        <time>2013-02-01T10:00:51Z</time>
      </trkpt>
      <trkpt lat="42.848343" lon="1.412429">
        <ele>1153.7</ele>
        <time>2013-02-01T10:01:06Z</time>
      </trkpt>
      <trkpt lat="42.848405" lon="1.412295">
        <ele>1154.7</ele>
        <time>2013-02-01T10:01:20Z</time>
      </trkpt>
      <trkpt lat="42.848442" lon="1.412180">
        <ele>1155.6</ele>
        <time>2013-02-01T10:01:33Z</time>
      </trkpt>
      <trkpt lat="42.848455" lon="1.412040">
        <ele>1156.6</ele>
        <time>2013-02-01T10:01:46Z</time>
      </trkpt>
      <trkpt lat="42.848466" lon="1.411895">
        <ele>1158.1</ele>
        <time>2013-02-01T10:02:01Z</time>
      </trkpt>
      <trkpt lat="42.848513" lon="1.411743">
        <ele>1159.0</ele>
        <time>2013-02-01T10:02:15Z</time>
      </trkpt>
      <trkpt lat="42.848555" lon="1.411591">
        <ele>1160.4</ele>
        <time>2013-02-01T10:02:32Z</time>
      </trkpt>
      <trkpt lat="42.848625" lon="1.411470">
        <ele>1162.4</ele>
        <time>2013-02-01T10:03:00Z</time>
      </trkpt>
      <trkpt lat="42.848709" lon="1.411348">
        <ele>1163.3</ele>
        <time>2013-02-01T10:03:16Z</time>
      </trkpt>
      <trkpt lat="42.848817" lon="1.411292">
        <ele>1164.8</ele>
        <time>2013-02-01T10:03:31Z</time>
      </trkpt>
      <trkpt lat="42.848931" lon="1.411329">
        <ele>1165.7</ele>
        <time>2013-02-01T10:03:51Z</time>
      </trkpt>
      <trkpt lat="42.848934" lon="1.411454">
        <ele>1168.1</ele>
        <time>2013-02-01T10:04:08Z</time>
      </trkpt>
      <trkpt lat="42.848844" lon="1.411507">
        <ele>1169.1</ele>
        <time>2013-02-01T10:04:21Z</time>
      </trkpt>
      <trkpt lat="42.848768" lon="1.411564">
        <ele>1169.6</ele>
        <time>2013-02-01T10:04:33Z</time>
      </trkpt>
      <trkpt lat="42.848720" lon="1.411684">
        <ele>1170.5</ele>
        <time>2013-02-01T10:04:47Z</time>
      </trkpt>
      <trkpt lat="42.848721" lon="1.411811">
        <ele>1171.5</ele>
        <time>2013-02-01T10:04:59Z</time>
      </trkpt>
      <trkpt lat="42.848727" lon="1.411948">
        <ele>1172.9</ele>
        <time>2013-02-01T10:05:13Z</time>
      </trkpt>
      <trkpt lat="42.848743" lon="1.412083">
        <ele>1173.9</ele>
        <time>2013-02-01T10:05:29Z</time>
      </trkpt>
      <trkpt lat="42.848811" lon="1.412205">
        <ele>1174.9</ele>
        <time>2013-02-01T10:07:01Z</time>
      </trkpt>
      <trkpt lat="42.848780" lon="1.412202">
        <ele>1176.8</ele>
        <time>2013-02-01T10:13:27Z</time>
      </trkpt>
      <trkpt lat="42.848806" lon="1.412305">
        <ele>1178.7</ele>
        <time>2013-02-01T10:15:53Z</time>
      </trkpt>
      <trkpt lat="42.848832" lon="1.412426">
        <ele>1180.2</ele>
        <time>2013-02-01T10:16:10Z</time>
      </trkpt>
      <trkpt lat="42.848875" lon="1.412579">
        <ele>1181.1</ele>
        <time>2013-02-01T10:16:25Z</time>
      </trkpt>
      <trkpt lat="42.848917" lon="1.412718">
        <ele>1183.0</ele>
        <time>2013-02-01T10:16:40Z</time>
      </trkpt>
      <trkpt lat="42.848948" lon="1.412897">
        <ele>1183.5</ele>
        <time>2013-02-01T10:16:55Z</time>
      </trkpt>
      <trkpt lat="42.848942" lon="1.413045">
        <ele>1184.5</ele>
        <time>2013-02-01T10:17:10Z</time>
      </trkpt>
      <trkpt lat="42.848930" lon="1.413201">
        <ele>1185.0</ele>
        <time>2013-02-01T10:17:23Z</time>
      </trkpt>
      <trkpt lat="42.848890" lon="1.413340">
        <ele>1185.9</ele>
        <time>2013-02-01T10:17:37Z</time>
      </trkpt>
      <trkpt lat="42.848837" lon="1.413482">
        <ele>1187.4</ele>
        <time>2013-02-01T10:17:51Z</time>
      </trkpt>
      <trkpt lat="42.848807" lon="1.413613">
        <ele>1187.4</ele>
        <time>2013-02-01T10:18:01Z</time>
      </trkpt>
      <trkpt lat="42.848772" lon="1.413739">
        <ele>1187.8</ele>
        <time>2013-02-01T10:18:12Z</time>
      </trkpt>
      <trkpt lat="42.848750" lon="1.413864">
        <ele>1189.8</ele>
        <time>2013-02-01T10:18:24Z</time>
      </trkpt>
      <trkpt lat="42.848712" lon="1.414000">
        <ele>1190.2</ele>
        <time>2013-02-01T10:18:36Z</time>
      </trkpt>
      <trkpt lat="42.848677" lon="1.414123">
        <ele>1191.2</ele>
        <time>2013-02-01T10:18:49Z</time>
      </trkpt>
      <trkpt lat="42.848651" lon="1.414256">
        <ele>1191.7</ele>
        <time>2013-02-01T10:19:00Z</time>
      </trkpt>
      <trkpt lat="42.848637" lon="1.414383">
        <ele>1192.2</ele>
        <time>2013-02-01T10:19:11Z</time>
      </trkpt>
      <trkpt lat="42.848619" lon="1.414538">
        <ele>1193.1</ele>
        <time>2013-02-01T10:19:23Z</time>
      </trkpt>
      <trkpt lat="42.848596" lon="1.414674">
        <ele>1194.1</ele>
        <time>2013-02-01T10:19:35Z</time>
      </trkpt>
      <trkpt lat="42.848557" lon="1.414809">
        <ele>1195.1</ele>
        <time>2013-02-01T10:19:50Z</time>
      </trkpt>
      <trkpt lat="42.848515" lon="1.414951">
        <ele>1196.5</ele>
        <time>2013-02-01T10:20:05Z</time>
      </trkpt>
      <trkpt lat="42.848483" lon="1.415101">
        <ele>1197.9</ele>
        <time>2013-02-01T10:20:22Z</time>
      </trkpt>
      <trkpt lat="42.848419" lon="1.415254">
        <ele>1199.4</ele>
        <time>2013-02-01T10:20:39Z</time>
      </trkpt>
      <trkpt lat="42.848343" lon="1.415321">
        <ele>1199.9</ele>
        <time>2013-02-01T10:20:56Z</time>
      </trkpt>
      <trkpt lat="42.848254" lon="1.415435">
        <ele>1201.8</ele>
        <time>2013-02-01T10:21:11Z</time>
        <name>La Plagne</name>
      </trkpt>
      <trkpt lat="42.848200" lon="1.415545">
        <ele>1202.3</ele>
        <time>2013-02-01T10:21:26Z</time>
      </trkpt>
      <trkpt lat="42.848159" lon="1.415611">
        <ele>1204.7</ele>
        <time>2013-02-01T10:26:00Z</time>
      </trkpt>
      <trkpt lat="42.848152" lon="1.415759">
        <ele>1205.2</ele>
        <time>2013-02-01T10:26:16Z</time>
      </trkpt>
      <trkpt lat="42.848119" lon="1.415920">
        <ele>1207.1</ele>
        <time>2013-02-01T10:31:37Z</time>
      </trkpt>
      <trkpt lat="42.848081" lon="1.416047">
        <ele>1208.0</ele>
        <time>2013-02-01T10:31:48Z</time>
      </trkpt>
      <trkpt lat="42.848034" lon="1.416199">
        <ele>1209.5</ele>
        <time>2013-02-01T10:31:57Z</time>
      </trkpt>
      <trkpt lat="42.847984" lon="1.416331">
        <ele>1210.0</ele>
        <time>2013-02-01T10:32:06Z</time>
      </trkpt>
      <trkpt lat="42.847941" lon="1.416465">
        <ele>1211.4</ele>
        <time>2013-02-01T10:32:15Z</time>
      </trkpt>
      <trkpt lat="42.847874" lon="1.416583">
        <ele>1212.8</ele>
        <time>2013-02-01T10:32:25Z</time>
      </trkpt>
      <trkpt lat="42.847811" lon="1.416730">
        <ele>1213.8</ele>
        <time>2013-02-01T10:32:35Z</time>
      </trkpt>
      <trkpt lat="42.847771" lon="1.416859">
        <ele>1215.2</ele>
        <time>2013-02-01T10:32:43Z</time>
      </trkpt>
      <trkpt lat="42.847724" lon="1.416973">
        <ele>1215.7</ele>
        <time>2013-02-01T10:32:50Z</time>
      </trkpt>
      <trkpt lat="42.847671" lon="1.417093">
        <ele>1216.7</ele>
        <time>2013-02-01T10:33:00Z</time>
      </trkpt>
      <trkpt lat="42.847624" lon="1.417219">
        <ele>1217.7</ele>
        <time>2013-02-01T10:33:07Z</time>
      </trkpt>
      <trkpt lat="42.847610" lon="1.417366">
        <ele>1218.6</ele>
        <time>2013-02-01T10:33:19Z</time>
      </trkpt>
      <trkpt lat="42.847577" lon="1.417514">
        <ele>1219.6</ele>
        <time>2013-02-01T10:33:29Z</time>
      </trkpt>
      <trkpt lat="42.847551" lon="1.417663">
        <ele>1220.1</ele>
        <time>2013-02-01T10:33:39Z</time>
      </trkpt>
      <trkpt lat="42.847535" lon="1.417811">
        <ele>1221.0</ele>
        <time>2013-02-01T10:33:48Z</time>
      </trkpt>
      <trkpt lat="42.847493" lon="1.417938">
        <ele>1222.4</ele>
        <time>2013-02-01T10:33:56Z</time>
      </trkpt>
      <trkpt lat="42.847513" lon="1.418079">
        <ele>1222.9</ele>
        <time>2013-02-01T10:34:04Z</time>
      </trkpt>
      <trkpt lat="42.847511" lon="1.418232">
        <ele>1223.4</ele>
        <time>2013-02-01T10:34:13Z</time>
      </trkpt>
      <trkpt lat="42.847527" lon="1.418373">
        <ele>1223.9</ele>
        <time>2013-02-01T10:34:21Z</time>
      </trkpt>
      <trkpt lat="42.847579" lon="1.418502">
        <ele>1224.9</ele>
        <time>2013-02-01T10:34:28Z</time>
      </trkpt>
      <trkpt lat="42.847584" lon="1.418659">
        <ele>1225.3</ele>
        <time>2013-02-01T10:34:37Z</time>
      </trkpt>
      <trkpt lat="42.847643" lon="1.418921">
        <ele>1225.8</ele>
        <time>2013-02-01T10:34:45Z</time>
      </trkpt>
      <trkpt lat="42.847677" lon="1.419051">
        <ele>1226.8</ele>
        <time>2013-02-01T10:34:53Z</time>
      </trkpt>
      <trkpt lat="42.847699" lon="1.419218">
        <ele>1227.7</ele>
        <time>2013-02-01T10:35:01Z</time>
      </trkpt>
      <trkpt lat="42.847718" lon="1.419363">
        <ele>1228.2</ele>
        <time>2013-02-01T10:35:08Z</time>
      </trkpt>
      <trkpt lat="42.847733" lon="1.419493">
        <ele>1228.2</ele>
        <time>2013-02-01T10:35:15Z</time>
      </trkpt>
      <trkpt lat="42.847692" lon="1.419623">
        <ele>1228.7</ele>
        <time>2013-02-01T10:36:04Z</time>
      </trkpt>
      <trkpt lat="42.847719" lon="1.419701">
        <ele>1229.7</ele>
        <time>2013-02-01T10:38:03Z</time>
      </trkpt>
      <trkpt lat="42.847719" lon="1.419796">
        <ele>1229.2</ele>
        <time>2013-02-01T10:38:20Z</time>
      </trkpt>
      <trkpt lat="42.847654" lon="1.419896">
        <ele>1230.1</ele>
        <time>2013-02-01T10:38:47Z</time>
      </trkpt>
      <trkpt lat="42.847623" lon="1.419989">
        <ele>1230.1</ele>
        <time>2013-02-01T10:39:25Z</time>
      </trkpt>
      <trkpt lat="42.847623" lon="1.420150">
        <ele>1232.6</ele>
        <time>2013-02-01T10:39:41Z</time>
      </trkpt>
      <trkpt lat="42.847603" lon="1.420328">
        <ele>1234.9</ele>
        <time>2013-02-01T10:40:02Z</time>
      </trkpt>
      <trkpt lat="42.847671" lon="1.420486">
        <ele>1238.3</ele>
        <time>2013-02-01T10:40:27Z</time>
      </trkpt>
      <trkpt lat="42.847691" lon="1.420656">
        <ele>1242.6</ele>
        <time>2013-02-01T10:41:16Z</time>
      </trkpt>
      <trkpt lat="42.847754" lon="1.420795">
        <ele>1250.3</ele>
        <time>2013-02-01T10:42:01Z</time>
      </trkpt>
      <trkpt lat="42.847773" lon="1.420974">
        <ele>1255.6</ele>
        <time>2013-02-01T10:42:35Z</time>
      </trkpt>
      <trkpt lat="42.847879" lon="1.421166">
        <ele>1266.7</ele>
        <time>2013-02-01T10:44:58Z</time>
      </trkpt>
      <trkpt lat="42.847882" lon="1.421169">
        <ele>1268.1</ele>
        <time>2013-02-01T10:46:09Z</time>
      </trkpt>
      <trkpt lat="42.847960" lon="1.421123">
        <ele>1270.0</ele>
        <time>2013-02-01T10:47:21Z</time>
      </trkpt>
      <trkpt lat="42.848049" lon="1.421113">
        <ele>1272.0</ele>
        <time>2013-02-01T10:47:41Z</time>
      </trkpt>
      <trkpt lat="42.848167" lon="1.421154">
        <ele>1275.3</ele>
        <time>2013-02-01T10:48:03Z</time>
      </trkpt>
      <trkpt lat="42.848292" lon="1.421163">
        <ele>1278.7</ele>
        <time>2013-02-01T10:48:29Z</time>
      </trkpt>
      <trkpt lat="42.848363" lon="1.421356">
        <ele>1282.5</ele>
        <time>2013-02-01T10:49:43Z</time>
      </trkpt>
      <trkpt lat="42.848387" lon="1.421508">
        <ele>1283.5</ele>
        <time>2013-02-01T10:49:57Z</time>
      </trkpt>
      <trkpt lat="42.848381" lon="1.421617">
        <ele>1284.9</ele>
        <time>2013-02-01T10:50:08Z</time>
      </trkpt>
      <trkpt lat="42.848392" lon="1.421754">
        <ele>1286.4</ele>
        <time>2013-02-01T10:50:22Z</time>
      </trkpt>
      <trkpt lat="42.848399" lon="1.421845">
        <ele>1287.3</ele>
        <time>2013-02-01T10:51:00Z</time>
      </trkpt>
      <trkpt lat="42.848390" lon="1.422007">
        <ele>1287.8</ele>
        <time>2013-02-01T10:51:11Z</time>
      </trkpt>
      <trkpt lat="42.848366" lon="1.422185">
        <ele>1289.3</ele>
        <time>2013-02-01T10:51:23Z</time>
      </trkpt>
      <trkpt lat="42.848357" lon="1.422365">
        <ele>1290.2</ele>
        <time>2013-02-01T10:51:36Z</time>
      </trkpt>
      <trkpt lat="42.848310" lon="1.422536">
        <ele>1292.2</ele>
        <time>2013-02-01T10:51:49Z</time>
      </trkpt>
      <trkpt lat="42.848253" lon="1.422662">
        <ele>1293.6</ele>
        <time>2013-02-01T10:52:01Z</time>
      </trkpt>
      <trkpt lat="42.848193" lon="1.422775">
        <ele>1295.5</ele>
        <time>2013-02-01T10:52:11Z</time>
      </trkpt>
      <trkpt lat="42.848111" lon="1.422853">
        <ele>1296.5</ele>
        <time>2013-02-01T10:52:23Z</time>
      </trkpt>
      <trkpt lat="42.848020" lon="1.422930">
        <ele>1297.0</ele>
        <time>2013-02-01T10:52:33Z</time>
      </trkpt>
      <trkpt lat="42.847935" lon="1.422981">
        <ele>1297.9</ele>
        <time>2013-02-01T10:52:43Z</time>
      </trkpt>
      <trkpt lat="42.847839" lon="1.423008">
        <ele>1298.9</ele>
        <time>2013-02-01T10:52:54Z</time>
      </trkpt>
      <trkpt lat="42.847731" lon="1.423058">
        <ele>1300.3</ele>
        <time>2013-02-01T10:53:06Z</time>
      </trkpt>
      <trkpt lat="42.847626" lon="1.423130">
        <ele>1301.3</ele>
        <time>2013-02-01T10:53:18Z</time>
      </trkpt>
      <trkpt lat="42.847538" lon="1.423137">
        <ele>1302.7</ele>
        <time>2013-02-01T10:53:30Z</time>
      </trkpt>
      <trkpt lat="42.847437" lon="1.423179">
        <ele>1303.7</ele>
        <time>2013-02-01T10:53:42Z</time>
      </trkpt>
      <trkpt lat="42.847349" lon="1.423211">
        <ele>1305.1</ele>
        <time>2013-02-01T10:53:55Z</time>
      </trkpt>
      <trkpt lat="42.847254" lon="1.423237">
        <ele>1307.1</ele>
        <time>2013-02-01T10:54:09Z</time>
      </trkpt>
      <trkpt lat="42.847091" lon="1.423295">
        <ele>1308.5</ele>
        <time>2013-02-01T10:54:51Z</time>
      </trkpt>
      <trkpt lat="42.847004" lon="1.423353">
        <ele>1309.9</ele>
        <time>2013-02-01T10:55:07Z</time>
      </trkpt>
      <trkpt lat="42.846914" lon="1.423402">
        <ele>1310.9</ele>
        <time>2013-02-01T10:55:20Z</time>
      </trkpt>
      <trkpt lat="42.846823" lon="1.423419">
        <ele>1311.9</ele>
        <time>2013-02-01T10:55:33Z</time>
      </trkpt>
      <trkpt lat="42.846728" lon="1.423409">
        <ele>1312.8</ele>
        <time>2013-02-01T10:55:46Z</time>
      </trkpt>
      <trkpt lat="42.846634" lon="1.423381">
        <ele>1313.8</ele>
        <time>2013-02-01T10:55:58Z</time>
      </trkpt>
      <trkpt lat="42.846544" lon="1.423354">
        <ele>1314.3</ele>
        <time>2013-02-01T10:56:09Z</time>
      </trkpt>
      <trkpt lat="42.846449" lon="1.423360">
        <ele>1315.7</ele>
        <time>2013-02-01T10:56:21Z</time>
      </trkpt>
      <trkpt lat="42.846353" lon="1.423368">
        <ele>1316.7</ele>
        <time>2013-02-01T10:56:33Z</time>
      </trkpt>
      <trkpt lat="42.846244" lon="1.423417">
        <ele>1318.1</ele>
        <time>2013-02-01T10:56:51Z</time>
      </trkpt>
      <trkpt lat="42.846154" lon="1.423448">
        <ele>1319.6</ele>
        <time>2013-02-01T10:57:04Z</time>
      </trkpt>
      <trkpt lat="42.846063" lon="1.423505">
        <ele>1320.5</ele>
        <time>2013-02-01T10:57:17Z</time>
      </trkpt>
      <trkpt lat="42.845971" lon="1.423512">
        <ele>1321.5</ele>
        <time>2013-02-01T10:57:29Z</time>
      </trkpt>
      <trkpt lat="42.845869" lon="1.423584">
        <ele>1322.9</ele>
        <time>2013-02-01T10:57:41Z</time>
      </trkpt>
      <trkpt lat="42.845792" lon="1.423665">
        <ele>1323.9</ele>
        <time>2013-02-01T10:57:55Z</time>
      </trkpt>
      <trkpt lat="42.845740" lon="1.423755">
        <ele>1324.8</ele>
        <time>2013-02-01T10:58:12Z</time>
      </trkpt>
      <trkpt lat="42.845648" lon="1.423850">
        <ele>1326.8</ele>
        <time>2013-02-01T11:00:10Z</time>
      </trkpt>
      <trkpt lat="42.845561" lon="1.423893">
        <ele>1327.7</ele>
        <time>2013-02-01T11:00:25Z</time>
      </trkpt>
      <trkpt lat="42.845513" lon="1.423765">
        <ele>1329.6</ele>
        <time>2013-02-01T11:00:37Z</time>
      </trkpt>
      <trkpt lat="42.845504" lon="1.423615">
        <ele>1330.6</ele>
        <time>2013-02-01T11:00:50Z</time>
      </trkpt>
      <trkpt lat="42.845500" lon="1.423465">
        <ele>1332.0</ele>
        <time>2013-02-01T11:01:01Z</time>
      </trkpt>
      <trkpt lat="42.845502" lon="1.423285">
        <ele>1333.0</ele>
        <time>2013-02-01T11:01:14Z</time>
      </trkpt>
      <trkpt lat="42.845496" lon="1.423145">
        <ele>1334.0</ele>
        <time>2013-02-01T11:01:24Z</time>
      </trkpt>
      <trkpt lat="42.845494" lon="1.423008">
        <ele>1334.9</ele>
        <time>2013-02-01T11:01:35Z</time>
      </trkpt>
      <trkpt lat="42.845470" lon="1.422865">
        <ele>1335.9</ele>
        <time>2013-02-01T11:01:48Z</time>
      </trkpt>
      <trkpt lat="42.845455" lon="1.422735">
        <ele>1336.4</ele>
        <time>2013-02-01T11:02:00Z</time>
      </trkpt>
      <trkpt lat="42.845410" lon="1.422619">
        <ele>1337.3</ele>
        <time>2013-02-01T11:02:13Z</time>
      </trkpt>
      <trkpt lat="42.845330" lon="1.422527">
        <ele>1338.3</ele>
        <time>2013-02-01T11:02:27Z</time>
      </trkpt>
      <trkpt lat="42.845248" lon="1.422424">
        <ele>1338.3</ele>
        <time>2013-02-01T11:02:39Z</time>
      </trkpt>
      <trkpt lat="42.845184" lon="1.422367">
        <ele>1339.2</ele>
        <time>2013-02-01T11:03:17Z</time>
      </trkpt>
      <trkpt lat="42.845087" lon="1.422306">
        <ele>1338.8</ele>
        <time>2013-02-01T11:03:26Z</time>
      </trkpt>
      <trkpt lat="42.845019" lon="1.422220">
        <ele>1338.3</ele>
        <time>2013-02-01T11:03:37Z</time>
      </trkpt>
      <trkpt lat="42.844965" lon="1.422092">
        <ele>1339.2</ele>
        <time>2013-02-01T11:03:50Z</time>
      </trkpt>
      <trkpt lat="42.844922" lon="1.421982">
        <ele>1339.7</ele>
        <time>2013-02-01T11:04:05Z</time>
      </trkpt>
      <trkpt lat="42.844867" lon="1.421842">
        <ele>1340.7</ele>
        <time>2013-02-01T11:04:18Z</time>
      </trkpt>
      <trkpt lat="42.844803" lon="1.421701">
        <ele>1342.6</ele>
        <time>2013-02-01T11:04:33Z</time>
      </trkpt>
      <trkpt lat="42.844703" lon="1.421606">
        <ele>1343.6</ele>
        <time>2013-02-01T11:04:48Z</time>
      </trkpt>
      <trkpt lat="42.844599" lon="1.421481">
        <ele>1344.1</ele>
        <time>2013-02-01T11:05:00Z</time>
      </trkpt>
      <trkpt lat="42.844506" lon="1.421371">
        <ele>1344.5</ele>
        <time>2013-02-01T11:05:11Z</time>
      </trkpt>
      <trkpt lat="42.844449" lon="1.421240">
        <ele>1345.0</ele>
        <time>2013-02-01T11:05:24Z</time>
      </trkpt>
      <trkpt lat="42.844389" lon="1.421261">
        <ele>1346.5</ele>
        <time>2013-02-01T11:05:50Z</time>
      </trkpt>
      <trkpt lat="42.844438" lon="1.421335">
        <ele>1347.4</ele>
        <time>2013-02-01T11:06:04Z</time>
      </trkpt>
      <trkpt lat="42.844453" lon="1.421498">
        <ele>1349.3</ele>
        <time>2013-02-01T11:07:02Z</time>
      </trkpt>
      <trkpt lat="42.844379" lon="1.421604">
        <ele>1355.6</ele>
        <time>2013-02-01T11:07:36Z</time>
      </trkpt>
      <trkpt lat="42.844316" lon="1.421711">
        <ele>1359.9</ele>
        <time>2013-02-01T11:08:12Z</time>
      </trkpt>
      <trkpt lat="42.844231" lon="1.421757">
        <ele>1363.8</ele>
        <time>2013-02-01T11:08:25Z</time>
      </trkpt>
      <trkpt lat="42.844210" lon="1.421851">
        <ele>1368.6</ele>
        <time>2013-02-01T11:08:36Z</time>
      </trkpt>
      <trkpt lat="42.844136" lon="1.421856">
        <ele>1371.9</ele>
        <time>2013-02-01T11:08:49Z</time>
      </trkpt>
      <trkpt lat="42.844132" lon="1.421975">
        <ele>1375.3</ele>
        <time>2013-02-01T11:09:03Z</time>
      </trkpt>
      <trkpt lat="42.844097" lon="1.422020">
        <ele>1378.2</ele>
        <time>2013-02-01T11:09:28Z</time>
      </trkpt>
      <trkpt lat="42.844053" lon="1.422102">
        <ele>1381.6</ele>
        <time>2013-02-01T11:09:43Z</time>
      </trkpt>
      <trkpt lat="42.843959" lon="1.422061">
        <ele>1384.9</ele>
        <time>2013-02-01T11:09:59Z</time>
      </trkpt>
      <trkpt lat="42.843902" lon="1.422088">
        <ele>1388.3</ele>
        <time>2013-02-01T11:10:17Z</time>
      </trkpt>
      <trkpt lat="42.843801" lon="1.422108">
        <ele>1392.1</ele>
        <time>2013-02-01T11:11:38Z</time>
      </trkpt>
      <trkpt lat="42.843717" lon="1.422151">
        <ele>1394.5</ele>
        <time>2013-02-01T11:11:52Z</time>
      </trkpt>
      <trkpt lat="42.843644" lon="1.422189">
        <ele>1396.9</ele>
        <time>2013-02-01T11:12:05Z</time>
      </trkpt>
      <trkpt lat="42.843598" lon="1.422314">
        <ele>1400.8</ele>
        <time>2013-02-01T11:12:21Z</time>
      </trkpt>
      <trkpt lat="42.843559" lon="1.422453">
        <ele>1403.7</ele>
        <time>2013-02-01T11:12:37Z</time>
      </trkpt>
      <trkpt lat="42.843524" lon="1.422575">
        <ele>1407.5</ele>
        <time>2013-02-01T11:12:52Z</time>
      </trkpt>
      <trkpt lat="42.843487" lon="1.422689">
        <ele>1412.3</ele>
        <time>2013-02-01T11:13:12Z</time>
      </trkpt>
      <trkpt lat="42.843411" lon="1.422736">
        <ele>1416.2</ele>
        <time>2013-02-01T11:13:34Z</time>
      </trkpt>
      <trkpt lat="42.843347" lon="1.422767">
        <ele>1418.1</ele>
        <time>2013-02-01T11:14:04Z</time>
      </trkpt>
      <trkpt lat="42.843337" lon="1.422888">
        <ele>1419.0</ele>
        <time>2013-02-01T11:16:41Z</time>
      </trkpt>
      <trkpt lat="42.843347" lon="1.422892">
        <ele>1420.0</ele>
        <time>2013-02-01T11:18:01Z</time>
      </trkpt>
      <trkpt lat="42.843297" lon="1.423022">
        <ele>1420.5</ele>
        <time>2013-02-01T11:18:15Z</time>
      </trkpt>
      <trkpt lat="42.843262" lon="1.423149">
        <ele>1420.0</ele>
        <time>2013-02-01T11:18:27Z</time>
      </trkpt>
      <trkpt lat="42.843236" lon="1.423283">
        <ele>1422.4</ele>
        <time>2013-02-01T11:18:39Z</time>
      </trkpt>
      <trkpt lat="42.843204" lon="1.423406">
        <ele>1424.3</ele>
        <time>2013-02-01T11:18:53Z</time>
      </trkpt>
      <trkpt lat="42.843189" lon="1.423531">
        <ele>1427.7</ele>
        <time>2013-02-01T11:19:09Z</time>
      </trkpt>
      <trkpt lat="42.843111" lon="1.423556">
        <ele>1431.1</ele>
        <time>2013-02-01T11:19:26Z</time>
      </trkpt>
      <trkpt lat="42.843104" lon="1.423694">
        <ele>1434.4</ele>
        <time>2013-02-01T11:19:42Z</time>
      </trkpt>
      <trkpt lat="42.843051" lon="1.423800">
        <ele>1436.3</ele>
        <time>2013-02-01T11:19:58Z</time>
      </trkpt>
      <trkpt lat="42.843021" lon="1.423910">
        <ele>1439.2</ele>
        <time>2013-02-01T11:20:15Z</time>
      </trkpt>
      <trkpt lat="42.843031" lon="1.423924">
        <ele>1441.2</ele>
        <time>2013-02-01T11:21:00Z</time>
        <name>Hameau de Goutets</name>
      </trkpt>
      <trkpt lat="42.843030" lon="1.424057">
        <ele>1441.6</ele>
        <time>2013-02-01T11:21:13Z</time>
      </trkpt>
      <trkpt lat="42.843028" lon="1.424192">
        <ele>1442.6</ele>
        <time>2013-02-01T11:21:24Z</time>
      </trkpt>
      <trkpt lat="42.842995" lon="1.424276">
        <ele>1443.6</ele>
        <time>2013-02-01T11:21:42Z</time>
      </trkpt>
      <trkpt lat="42.842998" lon="1.424387">
        <ele>1443.6</ele>
        <time>2013-02-01T11:22:10Z</time>
      </trkpt>
      <trkpt lat="42.842937" lon="1.424503">
        <ele>1444.0</ele>
        <time>2013-02-01T11:23:58Z</time>
      </trkpt>
      <trkpt lat="42.842976" lon="1.424613">
        <ele>1443.1</ele>
        <time>2013-02-01T11:24:10Z</time>
      </trkpt>
      <trkpt lat="42.842922" lon="1.424725">
        <ele>1443.1</ele>
        <time>2013-02-01T11:24:24Z</time>
      </trkpt>
      <trkpt lat="42.842903" lon="1.424845">
        <ele>1443.1</ele>
        <time>2013-02-01T11:24:34Z</time>
      </trkpt>
      <trkpt lat="42.842916" lon="1.424978">
        <ele>1443.1</ele>
        <time>2013-02-01T11:24:44Z</time>
      </trkpt>
      <trkpt lat="42.842926" lon="1.425110">
        <ele>1443.6</ele>
        <time>2013-02-01T11:24:52Z</time>
      </trkpt>
      <trkpt lat="42.842915" lon="1.425228">
        <ele>1443.1</ele>
        <time>2013-02-01T11:25:01Z</time>
      </trkpt>
      <trkpt lat="42.842903" lon="1.425365">
        <ele>1443.6</ele>
        <time>2013-02-01T11:25:10Z</time>
      </trkpt>
      <trkpt lat="42.842901" lon="1.425483">
        <ele>1443.1</ele>
        <time>2013-02-01T11:25:18Z</time>
      </trkpt>
      <trkpt lat="42.842866" lon="1.425602">
        <ele>1443.1</ele>
        <time>2013-02-01T11:25:27Z</time>
      </trkpt>
      <trkpt lat="42.842825" lon="1.425720">
        <ele>1443.1</ele>
        <time>2013-02-01T11:25:36Z</time>
      </trkpt>
      <trkpt lat="42.842784" lon="1.425850">
        <ele>1443.6</ele>
        <time>2013-02-01T11:25:46Z</time>
      </trkpt>
      <trkpt lat="42.842736" lon="1.425943">
        <ele>1444.0</ele>
        <time>2013-02-01T11:25:55Z</time>
      </trkpt>
      <trkpt lat="42.842699" lon="1.426054">
        <ele>1444.5</ele>
        <time>2013-02-01T11:26:03Z</time>
      </trkpt>
      <trkpt lat="42.842698" lon="1.426168">
        <ele>1444.5</ele>
        <time>2013-02-01T11:26:12Z</time>
      </trkpt>
      <trkpt lat="42.842654" lon="1.426285">
        <ele>1445.0</ele>
        <time>2013-02-01T11:26:21Z</time>
      </trkpt>
      <trkpt lat="42.842609" lon="1.426390">
        <ele>1446.9</ele>
        <time>2013-02-01T11:26:32Z</time>
      </trkpt>
      <trkpt lat="42.842524" lon="1.426471">
        <ele>1448.8</ele>
        <time>2013-02-01T11:26:44Z</time>
      </trkpt>
      <trkpt lat="42.842468" lon="1.426563">
        <ele>1449.3</ele>
        <time>2013-02-01T11:26:54Z</time>
      </trkpt>
      <trkpt lat="42.842423" lon="1.426685">
        <ele>1449.3</ele>
        <time>2013-02-01T11:27:03Z</time>
      </trkpt>
      <trkpt lat="42.842382" lon="1.426784">
        <ele>1450.3</ele>
        <time>2013-02-01T11:27:13Z</time>
      </trkpt>
      <trkpt lat="42.842361" lon="1.426874">
        <ele>1452.2</ele>
        <time>2013-02-01T11:27:28Z</time>
      </trkpt>
      <trkpt lat="42.842361" lon="1.426954">
        <ele>1454.6</ele>
        <time>2013-02-01T11:27:52Z</time>
      </trkpt>
      <trkpt lat="42.842398" lon="1.427112">
        <ele>1456.1</ele>
        <time>2013-02-01T11:28:07Z</time>
      </trkpt>
      <trkpt lat="42.842371" lon="1.427233">
        <ele>1455.6</ele>
        <time>2013-02-01T11:28:18Z</time>
      </trkpt>
      <trkpt lat="42.842310" lon="1.427303">
        <ele>1452.7</ele>
        <time>2013-02-01T11:28:27Z</time>
      </trkpt>
      <trkpt lat="42.842179" lon="1.427262">
        <ele>1451.7</ele>
        <time>2013-02-01T11:28:39Z</time>
      </trkpt>
      <trkpt lat="42.842159" lon="1.427144">
        <ele>1451.2</ele>
        <time>2013-02-01T11:28:53Z</time>
      </trkpt>
      <trkpt lat="42.842099" lon="1.427054">
        <ele>1451.2</ele>
        <time>2013-02-01T11:29:34Z</time>
      </trkpt>
      <trkpt lat="42.842036" lon="1.426973">
        <ele>1450.3</ele>
        <time>2013-02-01T11:29:48Z</time>
      </trkpt>
      <trkpt lat="42.841954" lon="1.426949">
        <ele>1453.2</ele>
        <time>2013-02-01T11:31:06Z</time>
      </trkpt>
      <trkpt lat="42.841903" lon="1.426937">
        <ele>1453.2</ele>
        <time>2013-02-01T11:35:42Z</time>
        <name>Hameau superieur</name>
      </trkpt>
      <trkpt lat="42.841856" lon="1.426930">
        <ele>1452.2</ele>
        <time>2013-02-01T11:36:53Z</time>
      </trkpt>
      <trkpt lat="42.841863" lon="1.426936">
        <ele>1462.3</ele>
        <time>2013-02-01T12:21:23Z</time>
      </trkpt>
      <trkpt lat="42.841896" lon="1.426934">
        <ele>1460.9</ele>
        <time>2013-02-01T12:32:52Z</time>
      </trkpt>
      <trkpt lat="42.841948" lon="1.427005">
        <ele>1455.1</ele>
        <time>2013-02-01T12:52:19Z</time>
      </trkpt>
      <trkpt lat="42.841946" lon="1.427037">
        <ele>1453.7</ele>
        <time>2013-02-01T12:54:06Z</time>
      </trkpt>
      <trkpt lat="42.841966" lon="1.427134">
        <ele>1453.7</ele>
        <time>2013-02-01T12:58:19Z</time>
      </trkpt>
      <trkpt lat="42.842043" lon="1.427191">
        <ele>1453.7</ele>
        <time>2013-02-01T12:59:05Z</time>
      </trkpt>
      <trkpt lat="42.842129" lon="1.427231">
        <ele>1453.7</ele>
        <time>2013-02-01T12:59:18Z</time>
      </trkpt>
      <trkpt lat="42.842213" lon="1.427267">
        <ele>1454.1</ele>
        <time>2013-02-01T12:59:30Z</time>
      </trkpt>
      <trkpt lat="42.842251" lon="1.427157">
        <ele>1456.1</ele>
        <time>2013-02-01T12:59:44Z</time>
      </trkpt>
      <trkpt lat="42.842273" lon="1.427036">
        <ele>1457.0</ele>
        <time>2013-02-01T12:59:57Z</time>
      </trkpt>
      <trkpt lat="42.842259" lon="1.426929">
        <ele>1456.1</ele>
        <time>2013-02-01T13:00:50Z</time>
      </trkpt>
      <trkpt lat="42.842272" lon="1.426775">
        <ele>1453.2</ele>
        <time>2013-02-01T13:01:19Z</time>
      </trkpt>
      <trkpt lat="42.842331" lon="1.426701">
        <ele>1451.7</ele>
        <time>2013-02-01T13:01:50Z</time>
      </trkpt>
      <trkpt lat="42.842380" lon="1.426611">
        <ele>1450.8</ele>
        <time>2013-02-01T13:02:04Z</time>
      </trkpt>
      <trkpt lat="42.842433" lon="1.426501">
        <ele>1451.7</ele>
        <time>2013-02-01T13:02:18Z</time>
      </trkpt>
      <trkpt lat="42.842487" lon="1.426406">
        <ele>1450.3</ele>
        <time>2013-02-01T13:02:28Z</time>
      </trkpt>
      <trkpt lat="42.842556" lon="1.426316">
        <ele>1448.8</ele>
        <time>2013-02-01T13:02:41Z</time>
      </trkpt>
      <trkpt lat="42.842599" lon="1.426258">
        <ele>1447.4</ele>
        <time>2013-02-01T13:03:39Z</time>
      </trkpt>
      <trkpt lat="42.842634" lon="1.426142">
        <ele>1446.9</ele>
        <time>2013-02-01T13:03:48Z</time>
      </trkpt>
      <trkpt lat="42.842648" lon="1.426038">
        <ele>1446.4</ele>
        <time>2013-02-01T13:04:28Z</time>
      </trkpt>
      <trkpt lat="42.842681" lon="1.425925">
        <ele>1446.4</ele>
        <time>2013-02-01T13:04:48Z</time>
      </trkpt>
      <trkpt lat="42.842741" lon="1.425823">
        <ele>1446.4</ele>
        <time>2013-02-01T13:05:00Z</time>
      </trkpt>
      <trkpt lat="42.842770" lon="1.425709">
        <ele>1445.0</ele>
        <time>2013-02-01T13:05:11Z</time>
      </trkpt>
      <trkpt lat="42.842811" lon="1.425592">
        <ele>1445.0</ele>
        <time>2013-02-01T13:05:23Z</time>
      </trkpt>
      <trkpt lat="42.842850" lon="1.425486">
        <ele>1445.0</ele>
        <time>2013-02-01T13:05:33Z</time>
      </trkpt>
      <trkpt lat="42.842864" lon="1.425361">
        <ele>1445.0</ele>
        <time>2013-02-01T13:05:43Z</time>
      </trkpt>
      <trkpt lat="42.842873" lon="1.425241">
        <ele>1445.0</ele>
        <time>2013-02-01T13:05:55Z</time>
      </trkpt>
      <trkpt lat="42.842894" lon="1.425123">
        <ele>1444.5</ele>
        <time>2013-02-01T13:06:05Z</time>
      </trkpt>
      <trkpt lat="42.842897" lon="1.424984">
        <ele>1445.0</ele>
        <time>2013-02-01T13:06:15Z</time>
      </trkpt>
      <trkpt lat="42.842880" lon="1.424851">
        <ele>1444.0</ele>
        <time>2013-02-01T13:06:25Z</time>
      </trkpt>
      <trkpt lat="42.842901" lon="1.424705">
        <ele>1444.5</ele>
        <time>2013-02-01T13:06:36Z</time>
      </trkpt>
      <trkpt lat="42.842948" lon="1.424590">
        <ele>1444.0</ele>
        <time>2013-02-01T13:06:48Z</time>
      </trkpt>
      <trkpt lat="42.842969" lon="1.424450">
        <ele>1444.0</ele>
        <time>2013-02-01T13:07:06Z</time>
      </trkpt>
      <trkpt lat="42.842955" lon="1.424301">
        <ele>1444.5</ele>
        <time>2013-02-01T13:07:16Z</time>
      </trkpt>
      <trkpt lat="42.842984" lon="1.424197">
        <ele>1443.1</ele>
        <time>2013-02-01T13:07:27Z</time>
      </trkpt>
      <trkpt lat="42.842998" lon="1.424055">
        <ele>1442.1</ele>
        <time>2013-02-01T13:07:39Z</time>
      </trkpt>
      <trkpt lat="42.843100" lon="1.423991">
        <ele>1439.7</ele>
        <time>2013-02-01T13:09:15Z</time>
      </trkpt>
      <trkpt lat="42.843118" lon="1.423873">
        <ele>1438.3</ele>
        <time>2013-02-01T13:09:27Z</time>
      </trkpt>
      <trkpt lat="42.843138" lon="1.423769">
        <ele>1435.9</ele>
        <time>2013-02-01T13:09:37Z</time>
      </trkpt>
      <trkpt lat="42.843193" lon="1.423664">
        <ele>1431.1</ele>
        <time>2013-02-01T13:09:47Z</time>
      </trkpt>
      <trkpt lat="42.843303" lon="1.423678">
        <ele>1425.3</ele>
        <time>2013-02-01T13:10:00Z</time>
      </trkpt>
      <trkpt lat="42.843373" lon="1.423775">
        <ele>1423.4</ele>
        <time>2013-02-01T13:10:16Z</time>
      </trkpt>
      <trkpt lat="42.843448" lon="1.423891">
        <ele>1417.6</ele>
        <time>2013-02-01T13:10:30Z</time>
      </trkpt>
      <trkpt lat="42.843458" lon="1.424035">
        <ele>1421.0</ele>
        <time>2013-02-01T13:10:43Z</time>
      </trkpt>
      <trkpt lat="42.843447" lon="1.424178">
        <ele>1420.0</ele>
        <time>2013-02-01T13:10:53Z</time>
      </trkpt>
      <trkpt lat="42.843480" lon="1.424290">
        <ele>1418.1</ele>
        <time>2013-02-01T13:11:03Z</time>
      </trkpt>
      <trkpt lat="42.843529" lon="1.424399">
        <ele>1415.7</ele>
        <time>2013-02-01T13:11:13Z</time>
      </trkpt>
      <trkpt lat="42.843599" lon="1.424484">
        <ele>1414.7</ele>
        <time>2013-02-01T13:11:24Z</time>
      </trkpt>
      <trkpt lat="42.843670" lon="1.424572">
        <ele>1413.3</ele>
        <time>2013-02-01T13:11:38Z</time>
      </trkpt>
      <trkpt lat="42.843814" lon="1.424603">
        <ele>1411.3</ele>
        <time>2013-02-01T13:11:50Z</time>
      </trkpt>
      <trkpt lat="42.843920" lon="1.424663">
        <ele>1407.5</ele>
        <time>2013-02-01T13:12:04Z</time>
      </trkpt>
      <trkpt lat="42.844002" lon="1.424801">
        <ele>1402.7</ele>
        <time>2013-02-01T13:12:26Z</time>
      </trkpt>
      <trkpt lat="42.844014" lon="1.424880">
        <ele>1399.3</ele>
        <time>2013-02-01T13:12:40Z</time>
      </trkpt>
      <trkpt lat="42.844035" lon="1.424905">
        <ele>1396.4</ele>
        <time>2013-02-01T13:13:14Z</time>
      </trkpt>
      <trkpt lat="42.844125" lon="1.424916">
        <ele>1392.1</ele>
        <time>2013-02-01T13:13:24Z</time>
      </trkpt>
      <trkpt lat="42.844211" lon="1.424927">
        <ele>1388.3</ele>
        <time>2013-02-01T13:13:38Z</time>
      </trkpt>
      <trkpt lat="42.844252" lon="1.424942">
        <ele>1384.0</ele>
        <time>2013-02-01T13:13:56Z</time>
      </trkpt>
      <trkpt lat="42.844347" lon="1.424889">
        <ele>1380.6</ele>
        <time>2013-02-01T13:14:07Z</time>
      </trkpt>
      <trkpt lat="42.844398" lon="1.424850">
        <ele>1379.2</ele>
        <time>2013-02-01T13:14:30Z</time>
      </trkpt>
      <trkpt lat="42.844486" lon="1.424811">
        <ele>1377.7</ele>
        <time>2013-02-01T13:14:40Z</time>
      </trkpt>
      <trkpt lat="42.844545" lon="1.424740">
        <ele>1374.8</ele>
        <time>2013-02-01T13:14:51Z</time>
      </trkpt>
      <trkpt lat="42.844581" lon="1.424648">
        <ele>1373.4</ele>
        <time>2013-02-01T13:15:03Z</time>
      </trkpt>
      <trkpt lat="42.844629" lon="1.424556">
        <ele>1371.5</ele>
        <time>2013-02-01T13:15:14Z</time>
      </trkpt>
      <trkpt lat="42.844685" lon="1.424511">
        <ele>1369.5</ele>
        <time>2013-02-01T13:15:45Z</time>
      </trkpt>
      <trkpt lat="42.844745" lon="1.424435">
        <ele>1366.7</ele>
        <time>2013-02-01T13:15:55Z</time>
      </trkpt>
      <trkpt lat="42.844813" lon="1.424336">
        <ele>1364.2</ele>
        <time>2013-02-01T13:16:07Z</time>
      </trkpt>
      <trkpt lat="42.844878" lon="1.424229">
        <ele>1362.3</ele>
        <time>2013-02-01T13:16:35Z</time>
      </trkpt>
      <trkpt lat="42.844955" lon="1.424142">
        <ele>1359.9</ele>
        <time>2013-02-01T13:16:47Z</time>
      </trkpt>
      <trkpt lat="42.845018" lon="1.424029">
        <ele>1357.5</ele>
        <time>2013-02-01T13:16:58Z</time>
      </trkpt>
      <trkpt lat="42.845065" lon="1.423909">
        <ele>1354.6</ele>
        <time>2013-02-01T13:17:09Z</time>
      </trkpt>
      <trkpt lat="42.845136" lon="1.423810">
        <ele>1350.3</ele>
        <time>2013-02-01T13:17:21Z</time>
      </trkpt>
      <trkpt lat="42.845197" lon="1.423702">
        <ele>1348.9</ele>
        <time>2013-02-01T13:17:33Z</time>
      </trkpt>
      <trkpt lat="42.845264" lon="1.423615">
        <ele>1345.0</ele>
        <time>2013-02-01T13:17:46Z</time>
      </trkpt>
      <trkpt lat="42.845336" lon="1.423506">
        <ele>1341.7</ele>
        <time>2013-02-01T13:17:59Z</time>
      </trkpt>
      <trkpt lat="42.845387" lon="1.423394">
        <ele>1338.3</ele>
        <time>2013-02-01T13:18:13Z</time>
      </trkpt>
      <trkpt lat="42.845455" lon="1.423338">
        <ele>1334.0</ele>
        <time>2013-02-01T13:18:25Z</time>
      </trkpt>
      <trkpt lat="42.845512" lon="1.423380">
        <ele>1331.6</ele>
        <time>2013-02-01T13:18:46Z</time>
      </trkpt>
      <trkpt lat="42.845493" lon="1.423560">
        <ele>1331.1</ele>
        <time>2013-02-01T13:21:46Z</time>
      </trkpt>
      <trkpt lat="42.845517" lon="1.423731">
        <ele>1330.6</ele>
        <time>2013-02-01T13:22:02Z</time>
      </trkpt>
      <trkpt lat="42.845564" lon="1.423849">
        <ele>1329.2</ele>
        <time>2013-02-01T13:22:13Z</time>
      </trkpt>
      <trkpt lat="42.845668" lon="1.423833">
        <ele>1327.2</ele>
        <time>2013-02-01T13:22:25Z</time>
      </trkpt>
      <trkpt lat="42.845737" lon="1.423752">
        <ele>1326.3</ele>
        <time>2013-02-01T13:22:43Z</time>
      </trkpt>
      <trkpt lat="42.845765" lon="1.423655">
        <ele>1324.8</ele>
        <time>2013-02-01T13:23:18Z</time>
      </trkpt>
      <trkpt lat="42.845849" lon="1.423578">
        <ele>1323.9</ele>
        <time>2013-02-01T13:24:00Z</time>
      </trkpt>
      <trkpt lat="42.845870" lon="1.423449">
        <ele>1321.0</ele>
        <time>2013-02-01T13:24:16Z</time>
      </trkpt>
      <trkpt lat="42.845962" lon="1.423341">
        <ele>1316.7</ele>
        <time>2013-02-01T13:24:33Z</time>
      </trkpt>
      <trkpt lat="42.846022" lon="1.423197">
        <ele>1312.8</ele>
        <time>2013-02-01T13:24:54Z</time>
      </trkpt>
      <trkpt lat="42.846091" lon="1.423028">
        <ele>1310.9</ele>
        <time>2013-02-01T13:25:07Z</time>
      </trkpt>
      <trkpt lat="42.846197" lon="1.422952">
        <ele>1310.4</ele>
        <time>2013-02-01T13:25:28Z</time>
      </trkpt>
      <trkpt lat="42.846293" lon="1.422924">
        <ele>1309.4</ele>
        <time>2013-02-01T13:25:40Z</time>
      </trkpt>
      <trkpt lat="42.846352" lon="1.422835">
        <ele>1307.5</ele>
        <time>2013-02-01T13:25:50Z</time>
      </trkpt>
      <trkpt lat="42.846418" lon="1.422736">
        <ele>1305.1</ele>
        <time>2013-02-01T13:26:05Z</time>
      </trkpt>
      <trkpt lat="42.846453" lon="1.422600">
        <ele>1302.2</ele>
        <time>2013-02-01T13:26:23Z</time>
      </trkpt>
      <trkpt lat="42.846574" lon="1.422486">
        <ele>1297.4</ele>
        <time>2013-02-01T13:26:40Z</time>
      </trkpt>
      <trkpt lat="42.846637" lon="1.422307">
        <ele>1292.6</ele>
        <time>2013-02-01T13:27:21Z</time>
      </trkpt>
      <trkpt lat="42.846706" lon="1.422154">
        <ele>1286.4</ele>
        <time>2013-02-01T13:27:36Z</time>
      </trkpt>
      <trkpt lat="42.846808" lon="1.422029">
        <ele>1282.1</ele>
        <time>2013-02-01T13:27:54Z</time>
      </trkpt>
      <trkpt lat="42.846864" lon="1.421847">
        <ele>1278.2</ele>
        <time>2013-02-01T13:28:17Z</time>
      </trkpt>
      <trkpt lat="42.846873" lon="1.421692">
        <ele>1275.3</ele>
        <time>2013-02-01T13:28:32Z</time>
      </trkpt>
      <trkpt lat="42.846830" lon="1.421548">
        <ele>1271.5</ele>
        <time>2013-02-01T13:28:48Z</time>
      </trkpt>
      <trkpt lat="42.846860" lon="1.421318">
        <ele>1266.2</ele>
        <time>2013-02-01T13:29:08Z</time>
      </trkpt>
      <trkpt lat="42.846910" lon="1.421108">
        <ele>1262.8</ele>
        <time>2013-02-01T13:29:24Z</time>
      </trkpt>
      <trkpt lat="42.846964" lon="1.420987">
        <ele>1260.4</ele>
        <time>2013-02-01T13:29:35Z</time>
      </trkpt>
      <trkpt lat="42.847038" lon="1.420957">
        <ele>1258.5</ele>
        <time>2013-02-01T13:30:02Z</time>
      </trkpt>
      <trkpt lat="42.847033" lon="1.420815">
        <ele>1256.6</ele>
        <time>2013-02-01T13:30:19Z</time>
      </trkpt>
      <trkpt lat="42.847064" lon="1.420669">
        <ele>1252.7</ele>
        <time>2013-02-01T13:31:57Z</time>
      </trkpt>
      <trkpt lat="42.847101" lon="1.420513">
        <ele>1247.9</ele>
        <time>2013-02-01T13:32:07Z</time>
      </trkpt>
      <trkpt lat="42.847130" lon="1.420362">
        <ele>1244.1</ele>
        <time>2013-02-01T13:32:16Z</time>
      </trkpt>
      <trkpt lat="42.847188" lon="1.420227">
        <ele>1241.2</ele>
        <time>2013-02-01T13:32:25Z</time>
      </trkpt>
      <trkpt lat="42.847186" lon="1.420094">
        <ele>1238.8</ele>
        <time>2013-02-01T13:32:36Z</time>
      </trkpt>
      <trkpt lat="42.847243" lon="1.419974">
        <ele>1236.9</ele>
        <time>2013-02-01T13:32:48Z</time>
      </trkpt>
      <trkpt lat="42.847289" lon="1.419870">
        <ele>1231.6</ele>
        <time>2013-02-01T13:33:01Z</time>
      </trkpt>
      <trkpt lat="42.847390" lon="1.419752">
        <ele>1229.7</ele>
        <time>2013-02-01T13:33:28Z</time>
      </trkpt>
      <trkpt lat="42.847434" lon="1.419746">
        <ele>1226.3</ele>
        <time>2013-02-01T13:34:55Z</time>
      </trkpt>
      <trkpt lat="42.847490" lon="1.419597">
        <ele>1226.8</ele>
        <time>2013-02-01T13:37:20Z</time>
      </trkpt>
      <trkpt lat="42.847399" lon="1.419404">
        <ele>1224.9</ele>
        <time>2013-02-01T13:39:04Z</time>
      </trkpt>
      <trkpt lat="42.847331" lon="1.419319">
        <ele>1224.4</ele>
        <time>2013-02-01T13:40:18Z</time>
      </trkpt>
      <trkpt lat="42.847260" lon="1.419202">
        <ele>1222.9</ele>
        <time>2013-02-01T13:40:31Z</time>
      </trkpt>
      <trkpt lat="42.847154" lon="1.419123">
        <ele>1222.0</ele>
        <time>2013-02-01T13:41:01Z</time>
      </trkpt>
      <trkpt lat="42.847149" lon="1.419009">
        <ele>1219.6</ele>
        <time>2013-02-01T13:41:52Z</time>
      </trkpt>
      <trkpt lat="42.847081" lon="1.418940">
        <ele>1219.1</ele>
        <time>2013-02-01T13:42:08Z</time>
      </trkpt>
      <trkpt lat="42.847021" lon="1.418882">
        <ele>1217.2</ele>
        <time>2013-02-01T13:42:19Z</time>
      </trkpt>
      <trkpt lat="42.846945" lon="1.418756">
        <ele>1215.2</ele>
        <time>2013-02-01T13:42:32Z</time>
      </trkpt>
      <trkpt lat="42.846863" lon="1.418636">
        <ele>1213.3</ele>
        <time>2013-02-01T13:42:45Z</time>
      </trkpt>
      <trkpt lat="42.846769" lon="1.418510">
        <ele>1211.4</ele>
        <time>2013-02-01T13:42:58Z</time>
      </trkpt>
      <trkpt lat="42.846697" lon="1.418440">
        <ele>1210.4</ele>
        <time>2013-02-01T13:43:09Z</time>
      </trkpt>
      <trkpt lat="42.846641" lon="1.418313">
        <ele>1209.5</ele>
        <time>2013-02-01T13:43:25Z</time>
      </trkpt>
      <trkpt lat="42.846544" lon="1.418235">
        <ele>1207.1</ele>
        <time>2013-02-01T13:43:37Z</time>
      </trkpt>
      <trkpt lat="42.846454" lon="1.418149">
        <ele>1203.7</ele>
        <time>2013-02-01T13:43:48Z</time>
      </trkpt>
      <trkpt lat="42.846356" lon="1.418020">
        <ele>1201.8</ele>
        <time>2013-02-01T13:44:04Z</time>
      </trkpt>
      <trkpt lat="42.846274" lon="1.417921">
        <ele>1197.9</ele>
        <time>2013-02-01T13:44:16Z</time>
      </trkpt>
      <trkpt lat="42.846215" lon="1.417822">
        <ele>1195.1</ele>
        <time>2013-02-01T13:44:31Z</time>
      </trkpt>
      <trkpt lat="42.846153" lon="1.417660">
        <ele>1191.7</ele>
        <time>2013-02-01T13:44:46Z</time>
      </trkpt>
      <trkpt lat="42.846116" lon="1.417499">
        <ele>1187.4</ele>
        <time>2013-02-01T13:47:29Z</time>
      </trkpt>
      <trkpt lat="42.846052" lon="1.417367">
        <ele>1185.0</ele>
        <time>2013-02-01T13:47:39Z</time>
      </trkpt>
      <trkpt lat="42.846008" lon="1.417226">
        <ele>1182.6</ele>
        <time>2013-02-01T13:47:50Z</time>
      </trkpt>
      <trkpt lat="42.846010" lon="1.417057">
        <ele>1180.6</ele>
        <time>2013-02-01T13:48:01Z</time>
      </trkpt>
      <trkpt lat="42.846016" lon="1.416927">
        <ele>1177.8</ele>
        <time>2013-02-01T13:48:13Z</time>
      </trkpt>
      <trkpt lat="42.846014" lon="1.416774">
        <ele>1176.3</ele>
        <time>2013-02-01T13:48:24Z</time>
      </trkpt>
      <trkpt lat="42.846071" lon="1.416599">
        <ele>1175.3</ele>
        <time>2013-02-01T13:49:32Z</time>
      </trkpt>
      <trkpt lat="42.846141" lon="1.416468">
        <ele>1174.4</ele>
        <time>2013-02-01T13:49:47Z</time>
      </trkpt>
      <trkpt lat="42.846147" lon="1.416325">
        <ele>1170.5</ele>
        <time>2013-02-01T13:50:03Z</time>
      </trkpt>
      <trkpt lat="42.846129" lon="1.416130">
        <ele>1167.2</ele>
        <time>2013-02-01T13:50:17Z</time>
      </trkpt>
      <trkpt lat="42.846129" lon="1.416059">
        <ele>1164.8</ele>
        <time>2013-02-01T13:51:23Z</time>
      </trkpt>
      <trkpt lat="42.846111" lon="1.415809">
        <ele>1162.8</ele>
        <time>2013-02-01T13:52:22Z</time>
      </trkpt>
      <trkpt lat="42.846184" lon="1.415687">
        <ele>1162.4</ele>
        <time>2013-02-01T13:52:37Z</time>
      </trkpt>
      <trkpt lat="42.846210" lon="1.415487">
        <ele>1160.0</ele>
        <time>2013-02-01T13:52:57Z</time>
      </trkpt>
      <trkpt lat="42.846189" lon="1.415334">
        <ele>1157.1</ele>
        <time>2013-02-01T13:53:14Z</time>
      </trkpt>
      <trkpt lat="42.846155" lon="1.415230">
        <ele>1151.3</ele>
        <time>2013-02-01T13:53:24Z</time>
      </trkpt>
      <trkpt lat="42.846139" lon="1.415103">
        <ele>1150.8</ele>
        <time>2013-02-01T13:53:35Z</time>
      </trkpt>
      <trkpt lat="42.846104" lon="1.414937">
        <ele>1149.9</ele>
        <time>2013-02-01T13:53:47Z</time>
      </trkpt>
      <trkpt lat="42.846032" lon="1.414809">
        <ele>1146.0</ele>
        <time>2013-02-01T13:54:01Z</time>
      </trkpt>
      <trkpt lat="42.845972" lon="1.414700">
        <ele>1140.3</ele>
        <time>2013-02-01T13:54:20Z</time>
      </trkpt>
      <trkpt lat="42.845881" lon="1.414595">
        <ele>1136.4</ele>
        <time>2013-02-01T13:54:43Z</time>
      </trkpt>
      <trkpt lat="42.845776" lon="1.414495">
        <ele>1132.1</ele>
        <time>2013-02-01T13:55:05Z</time>
      </trkpt>
      <trkpt lat="42.845717" lon="1.414554">
        <ele>1133.5</ele>
        <time>2013-02-01T13:59:54Z</time>
      </trkpt>
      <trkpt lat="42.845744" lon="1.414592">
        <ele>1132.6</ele>
        <time>2013-02-01T14:01:08Z</time>
      </trkpt>
      <trkpt lat="42.845638" lon="1.414563">
        <ele>1129.7</ele>
        <time>2013-02-01T14:01:21Z</time>
      </trkpt>
      <trkpt lat="42.845524" lon="1.414537">
        <ele>1125.8</ele>
        <time>2013-02-01T14:01:45Z</time>
      </trkpt>
      <trkpt lat="42.845416" lon="1.414428">
        <ele>1118.6</ele>
        <time>2013-02-01T14:02:26Z</time>
      </trkpt>
      <trkpt lat="42.845326" lon="1.414394">
        <ele>1113.8</ele>
        <time>2013-02-01T14:03:43Z</time>
      </trkpt>
      <trkpt lat="42.845231" lon="1.414265">
        <ele>1107.1</ele>
        <time>2013-02-01T14:04:03Z</time>
      </trkpt>
      <trkpt lat="42.845222" lon="1.414113">
        <ele>1102.8</ele>
        <time>2013-02-01T14:04:14Z</time>
      </trkpt>
      <trkpt lat="42.845162" lon="1.413934">
        <ele>1098.4</ele>
        <time>2013-02-01T14:04:26Z</time>
      </trkpt>
      <trkpt lat="42.845095" lon="1.413815">
        <ele>1094.6</ele>
        <time>2013-02-01T14:04:35Z</time>
      </trkpt>
      <trkpt lat="42.845098" lon="1.413845">
        <ele>1093.2</ele>
        <time>2013-02-01T14:06:15Z</time>
      </trkpt>
      <trkpt lat="42.845085" lon="1.413681">
        <ele>1092.2</ele>
        <time>2013-02-01T14:09:02Z</time>
      </trkpt>
      <trkpt lat="42.845143" lon="1.413581">
        <ele>1091.2</ele>
        <time>2013-02-01T14:09:15Z</time>
      </trkpt>
      <trkpt lat="42.845203" lon="1.413467">
        <ele>1089.8</ele>
        <time>2013-02-01T14:09:25Z</time>
      </trkpt>
      <trkpt lat="42.845291" lon="1.413384">
        <ele>1088.8</ele>
        <time>2013-02-01T14:09:36Z</time>
      </trkpt>
      <trkpt lat="42.845389" lon="1.413328">
        <ele>1086.4</ele>
        <time>2013-02-01T14:09:49Z</time>
      </trkpt>
      <trkpt lat="42.845487" lon="1.413225">
        <ele>1085.5</ele>
        <time>2013-02-01T14:10:01Z</time>
      </trkpt>
      <trkpt lat="42.845580" lon="1.413096">
        <ele>1084.5</ele>
        <time>2013-02-01T14:10:14Z</time>
      </trkpt>
      <trkpt lat="42.845671" lon="1.412995">
        <ele>1083.1</ele>
        <time>2013-02-01T14:10:28Z</time>
      </trkpt>
      <trkpt lat="42.845755" lon="1.412878">
        <ele>1081.1</ele>
        <time>2013-02-01T14:10:39Z</time>
      </trkpt>
      <trkpt lat="42.845820" lon="1.412755">
        <ele>1080.2</ele>
        <time>2013-02-01T14:10:50Z</time>
      </trkpt>
      <trkpt lat="42.845847" lon="1.412599">
        <ele>1078.3</ele>
        <time>2013-02-01T14:11:02Z</time>
      </trkpt>
      <trkpt lat="42.845888" lon="1.412472">
        <ele>1076.8</ele>
        <time>2013-02-01T14:11:14Z</time>
      </trkpt>
      <trkpt lat="42.845962" lon="1.412379">
        <ele>1075.8</ele>
        <time>2013-02-01T14:11:27Z</time>
      </trkpt>
      <trkpt lat="42.846066" lon="1.412242">
        <ele>1074.4</ele>
        <time>2013-02-01T14:11:40Z</time>
      </trkpt>
      <trkpt lat="42.846145" lon="1.412139">
        <ele>1072.5</ele>
        <time>2013-02-01T14:11:51Z</time>
      </trkpt>
      <trkpt lat="42.846233" lon="1.412036">
        <ele>1072.0</ele>
        <time>2013-02-01T14:12:03Z</time>
      </trkpt>
      <trkpt lat="42.846312" lon="1.411927">
        <ele>1070.6</ele>
        <time>2013-02-01T14:12:17Z</time>
      </trkpt>
      <trkpt lat="42.846352" lon="1.411791">
        <ele>1068.6</ele>
        <time>2013-02-01T14:12:29Z</time>
      </trkpt>
      <trkpt lat="42.846415" lon="1.411676">
        <ele>1067.7</ele>
        <time>2013-02-01T14:12:42Z</time>
      </trkpt>
      <trkpt lat="42.846498" lon="1.411577">
        <ele>1066.2</ele>
        <time>2013-02-01T14:12:56Z</time>
      </trkpt>
      <trkpt lat="42.846523" lon="1.411433">
        <ele>1065.8</ele>
        <time>2013-02-01T14:13:12Z</time>
      </trkpt>
      <trkpt lat="42.846559" lon="1.411300">
        <ele>1063.8</ele>
        <time>2013-02-01T14:13:24Z</time>
      </trkpt>
      <trkpt lat="42.846626" lon="1.411309">
        <ele>1062.9</ele>
        <time>2013-02-01T14:18:50Z</time>
      </trkpt>
      <trkpt lat="42.846635" lon="1.411058">
        <ele>1061.9</ele>
        <time>2013-02-01T14:21:16Z</time>
      </trkpt>
      <trkpt lat="42.846664" lon="1.410921">
        <ele>1060.5</ele>
        <time>2013-02-01T14:21:29Z</time>
      </trkpt>
      <trkpt lat="42.846689" lon="1.410792">
        <ele>1059.0</ele>
        <time>2013-02-01T14:21:40Z</time>
      </trkpt>
      <trkpt lat="42.846724" lon="1.410657">
        <ele>1058.1</ele>
        <time>2013-02-01T14:21:52Z</time>
      </trkpt>
      <trkpt lat="42.846750" lon="1.410512">
        <ele>1056.6</ele>
        <time>2013-02-01T14:22:04Z</time>
      </trkpt>
      <trkpt lat="42.846775" lon="1.410373">
        <ele>1055.7</ele>
        <time>2013-02-01T14:22:16Z</time>
      </trkpt>
      <trkpt lat="42.846822" lon="1.410226">
        <ele>1054.7</ele>
        <time>2013-02-01T14:22:30Z</time>
      </trkpt>
      <trkpt lat="42.846855" lon="1.410082">
        <ele>1053.7</ele>
        <time>2013-02-01T14:22:42Z</time>
      </trkpt>
      <trkpt lat="42.846885" lon="1.409940">
        <ele>1053.3</ele>
        <time>2013-02-01T14:22:55Z</time>
      </trkpt>
      <trkpt lat="42.846918" lon="1.409799">
        <ele>1051.3</ele>
        <time>2013-02-01T14:23:07Z</time>
      </trkpt>
      <trkpt lat="42.846966" lon="1.409648">
        <ele>1050.4</ele>
        <time>2013-02-01T14:23:19Z</time>
      </trkpt>
      <trkpt lat="42.847014" lon="1.409509">
        <ele>1049.4</ele>
        <time>2013-02-01T14:23:31Z</time>
      </trkpt>
      <trkpt lat="42.847088" lon="1.409394">
        <ele>1048.4</ele>
        <time>2013-02-01T14:23:42Z</time>
      </trkpt>
      <trkpt lat="42.847156" lon="1.409274">
        <ele>1047.0</ele>
        <time>2013-02-01T14:23:54Z</time>
      </trkpt>
      <trkpt lat="42.847224" lon="1.409190">
        <ele>1045.1</ele>
        <time>2013-02-01T14:24:06Z</time>
      </trkpt>
      <trkpt lat="42.847304" lon="1.409094">
        <ele>1044.1</ele>
        <time>2013-02-01T14:24:18Z</time>
      </trkpt>
      <trkpt lat="42.847381" lon="1.409008">
        <ele>1042.7</ele>
        <time>2013-02-01T14:24:30Z</time>
      </trkpt>
      <trkpt lat="42.847444" lon="1.408884">
        <ele>1041.2</ele>
        <time>2013-02-01T14:24:42Z</time>
      </trkpt>
      <trkpt lat="42.847508" lon="1.408771">
        <ele>1040.8</ele>
        <time>2013-02-01T14:24:52Z</time>
      </trkpt>
      <trkpt lat="42.847583" lon="1.408655">
        <ele>1039.3</ele>
        <time>2013-02-01T14:25:05Z</time>
      </trkpt>
      <trkpt lat="42.847645" lon="1.408550">
        <ele>1037.9</ele>
        <time>2013-02-01T14:25:16Z</time>
      </trkpt>
      <trkpt lat="42.847724" lon="1.408425">
        <ele>1036.9</ele>
        <time>2013-02-01T14:25:27Z</time>
      </trkpt>
      <trkpt lat="42.847800" lon="1.408319">
        <ele>1035.5</ele>
        <time>2013-02-01T14:25:38Z</time>
      </trkpt>
      <trkpt lat="42.847887" lon="1.408252">
        <ele>1034.5</ele>
        <time>2013-02-01T14:25:49Z</time>
      </trkpt>
      <trkpt lat="42.847986" lon="1.408192">
        <ele>1033.1</ele>
        <time>2013-02-01T14:26:01Z</time>
      </trkpt>
      <trkpt lat="42.848101" lon="1.408127">
        <ele>1032.1</ele>
        <time>2013-02-01T14:26:13Z</time>
      </trkpt>
      <trkpt lat="42.848201" lon="1.408084">
        <ele>1030.7</ele>
        <time>2013-02-01T14:26:24Z</time>
      </trkpt>
      <trkpt lat="42.848288" lon="1.407998">
        <ele>1029.2</ele>
        <time>2013-02-01T14:26:36Z</time>
      </trkpt>
      <trkpt lat="42.848395" lon="1.407887">
        <ele>1027.8</ele>
        <time>2013-02-01T14:26:51Z</time>
      </trkpt>
      <trkpt lat="42.848477" lon="1.407769">
        <ele>1026.8</ele>
        <time>2013-02-01T14:27:05Z</time>
      </trkpt>
      <trkpt lat="42.848544" lon="1.407662">
        <ele>1025.9</ele>
        <time>2013-02-01T14:27:16Z</time>
      </trkpt>
      <trkpt lat="42.848621" lon="1.407567">
        <ele>1024.9</ele>
        <time>2013-02-01T14:27:27Z</time>
      </trkpt>
      <trkpt lat="42.848679" lon="1.407459">
        <ele>1023.5</ele>
        <time>2013-02-01T14:27:38Z</time>
      </trkpt>
      <trkpt lat="42.848726" lon="1.407357">
        <ele>1022.5</ele>
        <time>2013-02-01T14:27:50Z</time>
      </trkpt>
      <trkpt lat="42.848770" lon="1.407234">
        <ele>1020.6</ele>
        <time>2013-02-01T14:28:01Z</time>
      </trkpt>
      <trkpt lat="42.848838" lon="1.407095">
        <ele>1020.1</ele>
        <time>2013-02-01T14:28:13Z</time>
      </trkpt>
      <trkpt lat="42.848916" lon="1.406992">
        <ele>1018.7</ele>
        <time>2013-02-01T14:28:25Z</time>
      </trkpt>
      <trkpt lat="42.849017" lon="1.406903">
        <ele>1016.7</ele>
        <time>2013-02-01T14:28:36Z</time>
      </trkpt>
      <trkpt lat="42.849116" lon="1.406838">
        <ele>1015.3</ele>
        <time>2013-02-01T14:28:46Z</time>
      </trkpt>
      <trkpt lat="42.849187" lon="1.406729">
        <ele>1014.3</ele>
        <time>2013-02-01T14:28:58Z</time>
      </trkpt>
      <trkpt lat="42.849233" lon="1.406607">
        <ele>1013.4</ele>
        <time>2013-02-01T14:29:08Z</time>
      </trkpt>
      <trkpt lat="42.849305" lon="1.406510">
        <ele>1011.9</ele>
        <time>2013-02-01T14:29:19Z</time>
      </trkpt>
      <trkpt lat="42.849433" lon="1.406473">
        <ele>1010.5</ele>
        <time>2013-02-01T14:29:32Z</time>
      </trkpt>
      <trkpt lat="42.849539" lon="1.406386">
        <ele>1009.5</ele>
        <time>2013-02-01T14:29:44Z</time>
      </trkpt>
      <trkpt lat="42.849624" lon="1.406275">
        <ele>1007.6</ele>
        <time>2013-02-01T14:29:56Z</time>
      </trkpt>
      <trkpt lat="42.849700" lon="1.406160">
        <ele>1006.2</ele>
        <time>2013-02-01T14:30:08Z</time>
      </trkpt>
      <trkpt lat="42.849775" lon="1.406062">
        <ele>1005.2</ele>
        <time>2013-02-01T14:30:21Z</time>
      </trkpt>
      <trkpt lat="42.849845" lon="1.405958">
        <ele>1003.8</ele>
        <time>2013-02-01T14:30:33Z</time>
      </trkpt>
      <trkpt lat="42.849933" lon="1.405849">
        <ele>1002.3</ele>
        <time>2013-02-01T14:30:46Z</time>
      </trkpt>
      <trkpt lat="42.850023" lon="1.405730">
        <ele>1000.9</ele>
        <time>2013-02-01T14:30:59Z</time>
      </trkpt>
      <trkpt lat="42.850090" lon="1.405623">
        <ele>999.9</ele>
        <time>2013-02-01T14:31:10Z</time>
      </trkpt>
      <trkpt lat="42.850163" lon="1.405514">
        <ele>998.5</ele>
        <time>2013-02-01T14:31:21Z</time>
      </trkpt>
      <trkpt lat="42.850214" lon="1.405418">
        <ele>997.5</ele>
        <time>2013-02-01T14:31:31Z</time>
      </trkpt>
      <trkpt lat="42.850260" lon="1.405289">
        <ele>996.1</ele>
        <time>2013-02-01T14:31:44Z</time>
      </trkpt>
      <trkpt lat="42.850307" lon="1.405156">
        <ele>995.1</ele>
        <time>2013-02-01T14:31:55Z</time>
      </trkpt>
      <trkpt lat="42.850341" lon="1.405014">
        <ele>994.6</ele>
        <time>2013-02-01T14:32:06Z</time>
      </trkpt>
      <trkpt lat="42.850382" lon="1.404879">
        <ele>993.7</ele>
        <time>2013-02-01T14:32:18Z</time>
      </trkpt>
      <trkpt lat="42.850404" lon="1.404731">
        <ele>991.7</ele>
        <time>2013-02-01T14:32:30Z</time>
      </trkpt>
      <trkpt lat="42.850439" lon="1.404601">
        <ele>991.3</ele>
        <time>2013-02-01T14:32:42Z</time>
      </trkpt>
      <trkpt lat="42.850508" lon="1.404496">
        <ele>989.8</ele>
        <time>2013-02-01T14:32:54Z</time>
      </trkpt>
      <trkpt lat="42.850613" lon="1.404426">
        <ele>988.4</ele>
        <time>2013-02-01T14:33:06Z</time>
      </trkpt>
      <trkpt lat="42.850709" lon="1.404321">
        <ele>986.9</ele>
        <time>2013-02-01T14:33:18Z</time>
      </trkpt>
      <trkpt lat="42.850798" lon="1.404222">
        <ele>986.0</ele>
        <time>2013-02-01T14:33:30Z</time>
      </trkpt>
      <trkpt lat="42.850866" lon="1.404105">
        <ele>984.5</ele>
        <time>2013-02-01T14:33:42Z</time>
      </trkpt>
      <trkpt lat="42.850926" lon="1.403988">
        <ele>983.6</ele>
        <time>2013-02-01T14:33:54Z</time>
      </trkpt>
      <trkpt lat="42.850986" lon="1.403861">
        <ele>982.6</ele>
        <time>2013-02-01T14:34:06Z</time>
      </trkpt>
      <trkpt lat="42.851080" lon="1.403779">
        <ele>981.2</ele>
        <time>2013-02-01T14:34:19Z</time>
      </trkpt>
      <trkpt lat="42.851179" lon="1.403704">
        <ele>979.7</ele>
        <time>2013-02-01T14:34:32Z</time>
      </trkpt>
      <trkpt lat="42.851245" lon="1.403585">
        <ele>977.8</ele>
        <time>2013-02-01T14:34:45Z</time>
      </trkpt>
      <trkpt lat="42.851287" lon="1.403451">
        <ele>976.4</ele>
        <time>2013-02-01T14:34:56Z</time>
      </trkpt>
      <trkpt lat="42.851321" lon="1.403271">
        <ele>974.9</ele>
        <time>2013-02-01T14:35:08Z</time>
      </trkpt>
      <trkpt lat="42.851353" lon="1.403124">
        <ele>974.0</ele>
        <time>2013-02-01T14:35:20Z</time>
      </trkpt>
      <trkpt lat="42.851365" lon="1.402972">
        <ele>972.5</ele>
        <time>2013-02-01T14:35:31Z</time>
      </trkpt>
      <trkpt lat="42.851373" lon="1.402829">
        <ele>971.5</ele>
        <time>2013-02-01T14:35:41Z</time>
      </trkpt>
      <trkpt lat="42.851392" lon="1.402704">
        <ele>970.6</ele>
        <time>2013-02-01T14:35:54Z</time>
      </trkpt>
      <trkpt lat="42.851497" lon="1.402602">
        <ele>968.7</ele>
        <time>2013-02-01T14:36:08Z</time>
      </trkpt>
      <trkpt lat="42.851604" lon="1.402508">
        <ele>967.7</ele>
        <time>2013-02-01T14:36:21Z</time>
      </trkpt>
      <trkpt lat="42.851608" lon="1.402376">
        <ele>966.3</ele>
        <time>2013-02-01T14:36:33Z</time>
      </trkpt>
      <trkpt lat="42.851581" lon="1.402253">
        <ele>964.8</ele>
        <time>2013-02-01T14:36:43Z</time>
      </trkpt>
      <trkpt lat="42.851504" lon="1.402176">
        <ele>963.9</ele>
        <time>2013-02-01T14:36:54Z</time>
      </trkpt>
      <trkpt lat="42.851467" lon="1.402002">
        <ele>962.9</ele>
        <time>2013-02-01T14:37:06Z</time>
      </trkpt>
      <trkpt lat="42.851417" lon="1.401858">
        <ele>961.9</ele>
        <time>2013-02-01T14:37:16Z</time>
      </trkpt>
      <trkpt lat="42.851397" lon="1.401757">
        <ele>961.0</ele>
        <time>2013-02-01T14:37:26Z</time>
      </trkpt>
      <trkpt lat="42.851378" lon="1.401605">
        <ele>959.5</ele>
        <time>2013-02-01T14:37:39Z</time>
      </trkpt>
      <trkpt lat="42.851377" lon="1.401467">
        <ele>958.6</ele>
        <time>2013-02-01T14:37:48Z</time>
      </trkpt>
      <trkpt lat="42.851394" lon="1.401323">
        <ele>958.1</ele>
        <time>2013-02-01T14:38:00Z</time>
      </trkpt>
      <trkpt lat="42.851438" lon="1.401215">
        <ele>956.7</ele>
        <time>2013-02-01T14:38:13Z</time>
      </trkpt>
      <trkpt lat="42.851469" lon="1.401078">
        <ele>955.2</ele>
        <time>2013-02-01T14:38:28Z</time>
      </trkpt>
      <trkpt lat="42.851509" lon="1.401050">
        <ele>953.8</ele>
        <time>2013-02-01T14:40:50Z</time>
      </trkpt>
      <trkpt lat="42.851523" lon="1.400910">
        <ele>952.8</ele>
        <time>2013-02-01T14:41:12Z</time>
      </trkpt>
      <trkpt lat="42.851535" lon="1.400775">
        <ele>952.3</ele>
        <time>2013-02-01T14:41:22Z</time>
      </trkpt>
      <trkpt lat="42.851565" lon="1.400622">
        <ele>950.9</ele>
        <time>2013-02-01T14:41:32Z</time>
      </trkpt>
      <trkpt lat="42.851564" lon="1.400477">
        <ele>949.9</ele>
        <time>2013-02-01T14:41:43Z</time>
      </trkpt>
      <trkpt lat="42.851578" lon="1.400378">
        <ele>949.0</ele>
        <time>2013-02-01T14:42:21Z</time>
      </trkpt>
    </trkseg>
  </trk>
</gpx>
